Observation data for Tarzan on 08/14/2020      Previous  Date  Next       Current Mesonet Observations  Soil Data  Daily Summary Page  Observations in Plain Language
KTA1 140500Z 18008KT 31/11 A2998 RMK A01 T03110110  RH  029%=      5-min Rain = 0
KTA1 140501Z 19008KT 31/11 A2998 RMK A01 T03100110  RH  029%=      5-min Rain = 0
KTA1 140502Z 18008KT 31/11 A2998 RMK A01 T03100110  RH  029%=      5-min Rain = 0
KTA1 140503Z 18007KT 31/11 A2998 RMK A01 T03090110  RH  029%=      5-min Rain = 0
KTA1 140504Z 18009KT 31/11 A2998 RMK A01 T03090110  RH  029%=      5-min Rain = 0
KTA1 140505Z 18008KT 31/11 A2998 RMK A01 T03090110  RH  029%=      5-min Rain = 0
KTA1 140506Z 18008KT 31/11 A2998 RMK A01 T03090110  RH  029%=      5-min Rain = 0
KTA1 140507Z 18009KT 31/11 A2998 RMK A01 T03090110  RH  029%=      5-min Rain = 0
KTA1 140508Z 18009KT 31/11 A2998 RMK A01 T03090110  RH  029%=      5-min Rain = 0
KTA1 140509Z 18008KT 31/11 A2998 RMK A01 T03090111  RH  029%=      5-min Rain = 0
KTA1 140510Z 18009KT 31/11 A2998 RMK A01 T03080110  RH  029%=      5-min Rain = 0
KTA1 140511Z 18009KT 31/11 A2998 RMK A01 T03080110  RH  029%=      5-min Rain = 0
KTA1 140512Z 18010KT 31/11 A2998 RMK A01 T03080110  RH  029%=      5-min Rain = 0
KTA1 140513Z 18009KT 31/11 A2998 RMK A01 T03080110  RH  029%=      5-min Rain = 0
KTA1 140514Z 18008KT 31/11 A2998 RMK A01 T03090111  RH  030%=      5-min Rain = 0
KTA1 140515Z 18009KT 31/11 A2998 RMK A01 T03080111  RH  030%=      5-min Rain = 0
KTA1 140516Z 18009KT 31/11 A2998 RMK A01 T03080111  RH  030%=      5-min Rain = 0
KTA1 140517Z 18008KT 31/11 A2998 RMK A01 T03080111  RH  030%=      5-min Rain = 0
KTA1 140518Z 18009KT 31/11 A2999 RMK A01 T03080111  RH  030%=      5-min Rain = 0
KTA1 140519Z 18008KT 31/11 A2999 RMK A01 T03080111  RH  030%=      5-min Rain = 0
KTA1 140520Z 19009KT 31/11 A2999 RMK A01 T03070110  RH  030%=      5-min Rain = 0
KTA1 140521Z 18008KT 31/11 A2999 RMK A01 T03070111  RH  030%=      5-min Rain = 0
KTA1 140522Z 18008KT 31/11 A2999 RMK A01 T03070111  RH  030%=      5-min Rain = 0
KTA1 140523Z 19008KT 31/11 A2999 RMK A01 T03070111  RH  030%=      5-min Rain = 0
KTA1 140524Z 19007KT 31/11 A2999 RMK A01 T03060111  RH  030%=      5-min Rain = 0
KTA1 140525Z 19008KT 31/11 A2999 RMK A01 T03050110  RH  030%=      5-min Rain = 0
KTA1 140526Z 19008KT 31/11 A2999 RMK A01 T03050110  RH  030%=      5-min Rain = 0
KTA1 140527Z 19007KT 31/11 A2999 RMK A01 T03050110  RH  030%=      5-min Rain = 0
KTA1 140528Z 19008KT 30/11 A2999 RMK A01 T03040110  RH  030%=      5-min Rain = 0
KTA1 140529Z 18008KT 30/11 A2999 RMK A01 T03040110  RH  030%=      5-min Rain = 0
KTA1 140530Z 19008KT 30/11 A2999 RMK A01 T03030110  RH  030%=      5-min Rain = 0
KTA1 140531Z 18008KT 30/11 A2999 RMK A01 T03030111  RH  030%=      5-min Rain = 0
KTA1 140532Z 19007KT 30/11 A2999 RMK A01 T03030110  RH  030%=      5-min Rain = 0
KTA1 140533Z 18008KT 30/11 A2999 RMK A01 T03030110  RH  030%=      5-min Rain = 0
KTA1 140534Z 18009KT 30/11 A2999 RMK A01 T03020110  RH  030%=      5-min Rain = 0
KTA1 140535Z 18009KT 30/11 A2999 RMK A01 T03030111  RH  031%=      5-min Rain = 0
KTA1 140536Z 18009KT 30/11 A2999 RMK A01 T03020110  RH  030%=      5-min Rain = 0
KTA1 140537Z 18008KT 30/11 A2999 RMK A01 T03020110  RH  031%=      5-min Rain = 0
KTA1 140538Z 18008KT 30/11 A2999 RMK A01 T03020110  RH  031%=      5-min Rain = 0
KTA1 140539Z 18008KT 30/11 A2999 RMK A01 T03020110  RH  031%=      5-min Rain = 0
KTA1 140540Z 18009KT 30/11 A2999 RMK A01 T03020110  RH  031%=      5-min Rain = 0
KTA1 140541Z 18008KT 30/11 A2999 RMK A01 T03020110  RH  031%=      5-min Rain = 0
KTA1 140542Z 19009KT 30/11 A2999 RMK A01 T03020110  RH  031%=      5-min Rain = 0
KTA1 140543Z 18008KT 30/11 A2999 RMK A01 T03030110  RH  031%=      5-min Rain = 0
KTA1 140544Z 18009KT 30/11 A2999 RMK A01 T03020110  RH  031%=      5-min Rain = 0
KTA1 140545Z 18009KT 30/11 A2999 RMK A01 T03020110  RH  031%=      5-min Rain = 0
KTA1 140546Z 18009KT 30/11 A2999 RMK A01 T03010110  RH  031%=      5-min Rain = 0
KTA1 140547Z 18009KT 30/11 A2999 RMK A01 T03020111  RH  031%=      5-min Rain = 0
KTA1 140548Z 18009KT 30/11 A2999 RMK A01 T03010110  RH  031%=      5-min Rain = 0
KTA1 140549Z 19010KT 30/11 A2999 RMK A01 T03010110  RH  031%=      5-min Rain = 0
KTA1 140550Z 18009KT 30/11 A2999 RMK A01 T03010110  RH  031%=      5-min Rain = 0
KTA1 140551Z 19009KT 30/11 A2999 RMK A01 T03010110  RH  031%=      5-min Rain = 0
KTA1 140552Z 18009KT 30/11 A2999 RMK A01 T03010110  RH  031%=      5-min Rain = 0
KTA1 140553Z 18009KT 30/11 A2999 RMK A01 T03010110  RH  031%=      5-min Rain = 0
KTA1 140554Z 18009KT 30/11 A2999 RMK A01 T03010110  RH  031%=      5-min Rain = 0
KTA1 140555Z 18009KT 30/11 A2999 RMK A01 T03010111  RH  031%=      5-min Rain = 0
KTA1 140556Z 18010KT 30/11 A2999 RMK A01 T03010110  RH  031%=      5-min Rain = 0
KTA1 140557Z 18009KT 30/11 A2999 RMK A01 T03000110  RH  031%=      5-min Rain = 0
KTA1 140558Z 18010KT 30/11 A2999 RMK A01 T03000110  RH  031%=      5-min Rain = 0
KTA1 140559Z 18009KT 30/11 A2999 RMK A01 T03000110  RH  031%=      5-min Rain = 0
KTA1 140600Z 18009KT 30/11 A2999 RMK A01 T03000110  RH  031%=      5-min Rain = 0
KTA1 140601Z 18009KT 30/11 A2999 RMK A01 T02990110  RH  031%=      5-min Rain = 0
KTA1 140602Z 19010KT 30/11 A2999 RMK A01 T03000110  RH  031%=      5-min Rain = 0
KTA1 140603Z 18010KT 30/11 A2999 RMK A01 T03000110  RH  031%=      5-min Rain = 0
KTA1 140604Z 19008KT 30/11 A2999 RMK A01 T03000110  RH  031%=      5-min Rain = 0
KTA1 140605Z 18008KT 30/11 A2999 RMK A01 T02990110  RH  031%=      5-min Rain = 0
KTA1 140606Z 19009KT 30/11 A2999 RMK A01 T02990110  RH  031%=      5-min Rain = 0
KTA1 140607Z 19008KT 30/11 A2999 RMK A01 T02990110  RH  031%=      5-min Rain = 0
KTA1 140608Z 19009KT 30/11 A2999 RMK A01 T02980110  RH  031%=      5-min Rain = 0
KTA1 140609Z 19009KT 30/11 A2999 RMK A01 T02980110  RH  031%=      5-min Rain = 0
KTA1 140610Z 19008KT 30/11 A2999 RMK A01 T02980110  RH  031%=      5-min Rain = 0
KTA1 140611Z 18009KT 30/11 A2999 RMK A01 T02970110  RH  031%=      5-min Rain = 0
KTA1 140612Z 18009KT 30/11 A2999 RMK A01 T02970110  RH  031%=      5-min Rain = 0
KTA1 140613Z 18008KT 30/11 A2999 RMK A01 T02970110  RH  031%=      5-min Rain = 0
KTA1 140614Z 18008KT 30/11 A2999 RMK A01 T02970110  RH  031%=      5-min Rain = 0
KTA1 140615Z 19008KT 30/11 A2999 RMK A01 T02970110  RH  031%=      5-min Rain = 0
KTA1 140616Z 18007KT 30/11 A2999 RMK A01 T02960110  RH  032%=      5-min Rain = 0
KTA1 140617Z 19008KT 30/11 A2999 RMK A01 T02960110  RH  032%=      5-min Rain = 0
KTA1 140618Z 19008KT 30/11 A2999 RMK A01 T02950110  RH  032%=      5-min Rain = 0
KTA1 140619Z 19008KT 30/11 A2999 RMK A01 T02960110  RH  032%=      5-min Rain = 0
KTA1 140620Z 19008KT 30/11 A2999 RMK A01 T02950110  RH  032%=      5-min Rain = 0
KTA1 140621Z 19007KT 30/11 A2999 RMK A01 T02950110  RH  032%=      5-min Rain = 0
KTA1 140622Z 19007KT 29/11 A2999 RMK A01 T02940109  RH  032%=      5-min Rain = 0
KTA1 140623Z 19008KT 29/11 A2999 RMK A01 T02940109  RH  032%=      5-min Rain = 0
KTA1 140624Z 19008KT 29/11 A2999 RMK A01 T02940109  RH  032%=      5-min Rain = 0
KTA1 140625Z 19008KT 29/11 A2999 RMK A01 T02930109  RH  032%=      5-min Rain = 0
KTA1 140626Z 18008KT 29/11 A2999 RMK A01 T02930109  RH  032%=      5-min Rain = 0
KTA1 140627Z 19008KT 29/11 A2999 RMK A01 T02930110  RH  032%=      5-min Rain = 0
KTA1 140628Z 18008KT 29/11 A2999 RMK A01 T02930109  RH  032%=      5-min Rain = 0
KTA1 140629Z 18007KT 29/11 A2999 RMK A01 T02920109  RH  032%=      5-min Rain = 0
KTA1 140630Z 18008KT 29/11 A2999 RMK A01 T02920109  RH  032%=      5-min Rain = 0
KTA1 140631Z 18009KT 29/11 A2999 RMK A01 T02910109  RH  032%=      5-min Rain = 0
KTA1 140632Z 18008KT 29/11 A2999 RMK A01 T02910109  RH  032%=      5-min Rain = 0
KTA1 140633Z 18008KT 29/11 A2999 RMK A01 T02910109  RH  032%=      5-min Rain = 0
KTA1 140634Z 18008KT 29/11 A2999 RMK A01 T02910109  RH  032%=      5-min Rain = 0
KTA1 140635Z 18008KT 29/11 A2999 RMK A01 T02900109  RH  033%=      5-min Rain = 0
KTA1 140636Z 18008KT 29/11 A2999 RMK A01 T02900109  RH  033%=      5-min Rain = 0
KTA1 140637Z 19008KT 29/11 A2999 RMK A01 T02900109  RH  033%=      5-min Rain = 0
KTA1 140638Z 18008KT 29/11 A2999 RMK A01 T02900109  RH  033%=      5-min Rain = 0
KTA1 140639Z 18008KT 29/11 A2999 RMK A01 T02890110  RH  033%=      5-min Rain = 0
KTA1 140640Z 18008KT 29/11 A2999 RMK A01 T02890109  RH  033%=      5-min Rain = 0
KTA1 140641Z 19008KT 29/11 A2999 RMK A01 T02890109  RH  033%=      5-min Rain = 0
KTA1 140642Z 19007KT 29/11 A2999 RMK A01 T02880109  RH  033%=      5-min Rain = 0
KTA1 140643Z 18007KT 29/11 A2999 RMK A01 T02880109  RH  033%=      5-min Rain = 0
KTA1 140644Z 18008KT 29/11 A2999 RMK A01 T02870109  RH  033%=      5-min Rain = 0
KTA1 140645Z 18008KT 29/11 A2999 RMK A01 T02870109  RH  033%=      5-min Rain = 0
KTA1 140646Z 19007KT 29/11 A2999 RMK A01 T02870109  RH  033%=      5-min Rain = 0
KTA1 140647Z 19007KT 29/11 A2999 RMK A01 T02870109  RH  033%=      5-min Rain = 0
KTA1 140648Z 19007KT 29/11 A2999 RMK A01 T02860109  RH  033%=      5-min Rain = 0
KTA1 140649Z 19007KT 29/11 A2999 RMK A01 T02860109  RH  033%=      5-min Rain = 0
KTA1 140650Z 19006KT 29/11 A2999 RMK A01 T02860109  RH  033%=      5-min Rain = 0
KTA1 140651Z 19006KT 29/11 A2999 RMK A01 T02850109  RH  033%=      5-min Rain = 0
KTA1 140652Z 19007KT 28/11 A2999 RMK A01 T02840109  RH  034%=      5-min Rain = 0
KTA1 140653Z 19007KT 28/11 A2999 RMK A01 T02840109  RH  034%=      5-min Rain = 0
KTA1 140654Z 19006KT 28/11 A2999 RMK A01 T02830109  RH  034%=      5-min Rain = 0
KTA1 140655Z 18007KT 28/11 A2999 RMK A01 T02830109  RH  034%=      5-min Rain = 0
KTA1 140656Z 18007KT 28/11 A2999 RMK A01 T02820109  RH  034%=      5-min Rain = 0
KTA1 140657Z 18008KT 28/11 A2999 RMK A01 T02820108  RH  034%=      5-min Rain = 0
KTA1 140658Z 18007KT 28/11 A2999 RMK A01 T02820109  RH  034%=      5-min Rain = 0
KTA1 140659Z 18007KT 28/11 A2999 RMK A01 T02820109  RH  034%=      5-min Rain = 0
KTA1 140700Z 18007KT 28/11 A2999 RMK A01 T02820108  RH  034%=      5-min Rain = 0
KTA1 140701Z 18008KT 28/11 A2999 RMK A01 T02820109  RH  034%=      5-min Rain = 0
KTA1 140702Z 18007KT 28/11 A2999 RMK A01 T02820109  RH  034%=      5-min Rain = 0
KTA1 140703Z 18007KT 28/11 A2999 RMK A01 T02820109  RH  034%=      5-min Rain = 0
KTA1 140704Z 18007KT 28/11 A2999 RMK A01 T02820109  RH  034%=      5-min Rain = 0
KTA1 140705Z 18007KT 28/11 A2999 RMK A01 T02820108  RH  034%=      5-min Rain = 0
KTA1 140706Z 18007KT 28/11 A2999 RMK A01 T02820109  RH  034%=      5-min Rain = 0
KTA1 140707Z 19007KT 28/11 A2999 RMK A01 T02820109  RH  034%=      5-min Rain = 0
KTA1 140708Z 18008KT 28/11 A2999 RMK A01 T02810109  RH  034%=      5-min Rain = 0
KTA1 140709Z 18007KT 28/11 A2999 RMK A01 T02810109  RH  034%=      5-min Rain = 0
KTA1 140710Z 19007KT 28/11 A2999 RMK A01 T02810109  RH  034%=      5-min Rain = 0
KTA1 140711Z 19007KT 28/11 A2999 RMK A01 T02800109  RH  034%=      5-min Rain = 0
KTA1 140712Z 19007KT 28/11 A2999 RMK A01 T02800109  RH  034%=      5-min Rain = 0
KTA1 140713Z 18007KT 28/11 A2999 RMK A01 T02800109  RH  034%=      5-min Rain = 0
KTA1 140714Z 18007KT 28/11 A2999 RMK A01 T02790109  RH  035%=      5-min Rain = 0
KTA1 140715Z 19007KT 28/11 A2999 RMK A01 T02790109  RH  035%=      5-min Rain = 0
KTA1 140716Z 19006KT 28/11 A2999 RMK A01 T02790109  RH  035%=      5-min Rain = 0
KTA1 140717Z 19007KT 28/11 A2999 RMK A01 T02790109  RH  035%=      5-min Rain = 0
KTA1 140718Z 19007KT 28/11 A2999 RMK A01 T02790109  RH  035%=      5-min Rain = 0
KTA1 140719Z 19007KT 28/11 A2999 RMK A01 T02780109  RH  035%=      5-min Rain = 0
KTA1 140720Z 19007KT 28/11 A2999 RMK A01 T02780109  RH  035%=      5-min Rain = 0
KTA1 140721Z 19007KT 28/11 A2999 RMK A01 T02780109  RH  035%=      5-min Rain = 0
KTA1 140722Z 19007KT 28/11 A2999 RMK A01 T02780109  RH  035%=      5-min Rain = 0
KTA1 140723Z 19007KT 28/11 A2999 RMK A01 T02780109  RH  035%=      5-min Rain = 0
KTA1 140724Z 19007KT 28/11 A2999 RMK A01 T02770109  RH  035%=      5-min Rain = 0
KTA1 140725Z 19006KT 28/11 A2999 RMK A01 T02770109  RH  035%=      5-min Rain = 0
KTA1 140726Z 19007KT 28/11 A2999 RMK A01 T02770109  RH  035%=      5-min Rain = 0
KTA1 140727Z 19006KT 28/11 A2999 RMK A01 T02770109  RH  035%=      5-min Rain = 0
KTA1 140728Z 19007KT 28/11 A2999 RMK A01 T02760109  RH  035%=      5-min Rain = 0
KTA1 140729Z 19006KT 28/11 A2999 RMK A01 T02760109  RH  035%=      5-min Rain = 0
KTA1 140730Z 19006KT 28/11 A2999 RMK A01 T02750109  RH  036%=      5-min Rain = 0
KTA1 140731Z 19006KT 28/11 A2999 RMK A01 T02750109  RH  036%=      5-min Rain = 0
KTA1 140732Z 20006KT 27/11 A2999 RMK A01 T02740109  RH  036%=      5-min Rain = 0
KTA1 140733Z 19006KT 27/11 A2999 RMK A01 T02730109  RH  036%=      5-min Rain = 0
KTA1 140734Z 19006KT 27/11 A2999 RMK A01 T02730109  RH  036%=      5-min Rain = 0
KTA1 140735Z 20006KT 27/11 A2999 RMK A01 T02720109  RH  036%=      5-min Rain = 0
KTA1 140736Z 20006KT 27/11 A2999 RMK A01 T02720110  RH  036%=      5-min Rain = 0
KTA1 140737Z 20006KT 27/11 A2999 RMK A01 T02720110  RH  036%=      5-min Rain = 0
KTA1 140738Z 20006KT 27/11 A2999 RMK A01 T02720110  RH  036%=      5-min Rain = 0
KTA1 140739Z 20007KT 27/11 A2999 RMK A01 T02720110  RH  036%=      5-min Rain = 0
KTA1 140740Z 20006KT 27/11 A2999 RMK A01 T02720110  RH  036%=      5-min Rain = 0
KTA1 140741Z 20007KT 27/11 A2999 RMK A01 T02710110  RH  037%=      5-min Rain = 0
KTA1 140742Z 20007KT 27/11 A2999 RMK A01 T02710110  RH  037%=      5-min Rain = 0
KTA1 140743Z 20008KT 27/11 A2999 RMK A01 T02710110  RH  037%=      5-min Rain = 0
KTA1 140744Z 20007KT 27/11 A2999 RMK A01 T02710110  RH  037%=      5-min Rain = 0
KTA1 140745Z 20007KT 27/11 A2999 RMK A01 T02710111  RH  037%=      5-min Rain = 0
KTA1 140746Z 20007KT 27/11 A2999 RMK A01 T02720111  RH  037%=      5-min Rain = 0
KTA1 140747Z 20007KT 27/11 A2999 RMK A01 T02720111  RH  037%=      5-min Rain = 0
KTA1 140748Z 20007KT 27/11 A2999 RMK A01 T02720111  RH  037%=      5-min Rain = 0
KTA1 140749Z 20007KT 27/11 A2999 RMK A01 T02720111  RH  037%=      5-min Rain = 0
KTA1 140750Z 19007KT 27/11 A2999 RMK A01 T02720111  RH  037%=      5-min Rain = 0
KTA1 140751Z 19007KT 27/11 A2999 RMK A01 T02720111  RH  037%=      5-min Rain = 0
KTA1 140752Z 19006KT 27/11 A2999 RMK A01 T02720111  RH  037%=      5-min Rain = 0
KTA1 140753Z 19007KT 27/11 A2999 RMK A01 T02720111  RH  037%=      5-min Rain = 0
KTA1 140754Z 19007KT 27/11 A2999 RMK A01 T02720112  RH  037%=      5-min Rain = 0
KTA1 140755Z 19007KT 27/11 A2999 RMK A01 T02710111  RH  037%=      5-min Rain = 0
KTA1 140756Z 19007KT 27/11 A2999 RMK A01 T02710111  RH  037%=      5-min Rain = 0
KTA1 140757Z 19007KT 27/11 A2999 RMK A01 T02700111  RH  037%=      5-min Rain = 0
KTA1 140758Z 19007KT 27/11 A2999 RMK A01 T02690111  RH  037%=      5-min Rain = 0
KTA1 140759Z 19007KT 27/11 A2999 RMK A01 T02690111  RH  037%=      5-min Rain = 0
KTA1 140800Z 19007KT 27/11 A2999 RMK A01 T02680111  RH  037%=      5-min Rain = 0
KTA1 140801Z 19007KT 27/11 A2999 RMK A01 T02680111  RH  037%=      5-min Rain = 0
KTA1 140802Z 19007KT 27/11 A2999 RMK A01 T02680111  RH  037%=      5-min Rain = 0
KTA1 140803Z 19006KT 27/11 A2999 RMK A01 T02670111  RH  038%=      5-min Rain = 0
KTA1 140804Z 19007KT 27/11 A2999 RMK A01 T02660110  RH  038%=      5-min Rain = 0
KTA1 140805Z 19007KT 27/11 A2999 RMK A01 T02660110  RH  038%=      5-min Rain = 0
KTA1 140806Z 19007KT 27/11 A2999 RMK A01 T02660111  RH  038%=      5-min Rain = 0
KTA1 140807Z 19006KT 27/11 A2998 RMK A01 T02650110  RH  038%=      5-min Rain = 0
KTA1 140808Z 19007KT 26/11 A2998 RMK A01 T02640110  RH  038%=      5-min Rain = 0
KTA1 140809Z 19007KT 26/11 A2998 RMK A01 T02640110  RH  038%=      5-min Rain = 0
KTA1 140810Z 19007KT 26/11 A2998 RMK A01 T02640110  RH  038%=      5-min Rain = 0
KTA1 140811Z 19007KT 26/11 A2998 RMK A01 T02640111  RH  038%=      5-min Rain = 0
KTA1 140812Z 19007KT 26/11 A2998 RMK A01 T02630111  RH  038%=      5-min Rain = 0
KTA1 140813Z 19007KT 26/11 A2998 RMK A01 T02630111  RH  039%=      5-min Rain = 0
KTA1 140814Z 19007KT 26/11 A2998 RMK A01 T02630112  RH  039%=      5-min Rain = 0
KTA1 140815Z 19007KT 26/11 A2998 RMK A01 T02630112  RH  039%=      5-min Rain = 0
KTA1 140816Z 19007KT 26/11 A2998 RMK A01 T02630112  RH  039%=      5-min Rain = 0
KTA1 140817Z 19007KT 26/11 A2998 RMK A01 T02630112  RH  039%=      5-min Rain = 0
KTA1 140818Z 19007KT 26/11 A2998 RMK A01 T02630112  RH  039%=      5-min Rain = 0
KTA1 140819Z 19007KT 26/11 A2998 RMK A01 T02630112  RH  039%=      5-min Rain = 0
KTA1 140820Z 19007KT 26/11 A2998 RMK A01 T02630112  RH  039%=      5-min Rain = 0
KTA1 140821Z 19007KT 26/11 A2998 RMK A01 T02640112  RH  039%=      5-min Rain = 0
KTA1 140822Z 19007KT 26/11 A2998 RMK A01 T02640112  RH  039%=      5-min Rain = 0
KTA1 140823Z 19006KT 26/11 A2999 RMK A01 T02640112  RH  039%=      5-min Rain = 0
KTA1 140824Z 19006KT 26/11 A2999 RMK A01 T02630112  RH  039%=      5-min Rain = 0
KTA1 140825Z 19007KT 26/11 A2999 RMK A01 T02630112  RH  039%=      5-min Rain = 0
KTA1 140826Z 19007KT 26/11 A2999 RMK A01 T02630112  RH  039%=      5-min Rain = 0
KTA1 140827Z 19006KT 26/11 A2999 RMK A01 T02630111  RH  039%=      5-min Rain = 0
KTA1 140828Z 19007KT 26/11 A2999 RMK A01 T02640112  RH  039%=      5-min Rain = 0
KTA1 140829Z 19006KT 26/11 A2999 RMK A01 T02630112  RH  039%=      5-min Rain = 0
KTA1 140830Z 19006KT 26/11 A2999 RMK A01 T02640112  RH  039%=      5-min Rain = 0
KTA1 140831Z 19006KT 26/11 A2999 RMK A01 T02630112  RH  039%=      5-min Rain = 0
KTA1 140832Z 19006KT 26/11 A2999 RMK A01 T02630112  RH  039%=      5-min Rain = 0
KTA1 140833Z 18006KT 26/11 A2999 RMK A01 T02630112  RH  039%=      5-min Rain = 0
KTA1 140834Z 18007KT 26/11 A2999 RMK A01 T02630113  RH  039%=      5-min Rain = 0
KTA1 140835Z 18006KT 26/11 A2999 RMK A01 T02620112  RH  039%=      5-min Rain = 0
KTA1 140836Z 18006KT 26/11 A2999 RMK A01 T02620113  RH  039%=      5-min Rain = 0
KTA1 140837Z 18006KT 26/11 A2999 RMK A01 T02620112  RH  039%=      5-min Rain = 0
KTA1 140838Z 18006KT 26/11 A2999 RMK A01 T02610113  RH  039%=      5-min Rain = 0
KTA1 140839Z 18006KT 26/11 A2999 RMK A01 T02610113  RH  039%=      5-min Rain = 0
KTA1 140840Z 18006KT 26/11 A2999 RMK A01 T02610112  RH  039%=      5-min Rain = 0
KTA1 140841Z 18006KT 26/11 A2999 RMK A01 T02600112  RH  040%=      5-min Rain = 0
KTA1 140842Z 18006KT 26/11 A2999 RMK A01 T02600112  RH  040%=      5-min Rain = 0
KTA1 140843Z 18006KT 26/11 A2999 RMK A01 T02600112  RH  040%=      5-min Rain = 0
KTA1 140844Z 18006KT 26/11 A2999 RMK A01 T02600113  RH  040%=      5-min Rain = 0
KTA1 140845Z 18006KT 26/11 A2999 RMK A01 T02600113  RH  040%=      5-min Rain = 0
KTA1 140846Z 18006KT 26/11 A2999 RMK A01 T02600112  RH  040%=      5-min Rain = 0
KTA1 140847Z 18006KT 26/11 A2999 RMK A01 T02590113  RH  040%=      5-min Rain = 0
KTA1 140848Z 18006KT 26/11 A2999 RMK A01 T02580112  RH  040%=      5-min Rain = 0
KTA1 140849Z 18006KT 26/11 A2999 RMK A01 T02580112  RH  040%=      5-min Rain = 0
KTA1 140850Z 18006KT 26/11 A2998 RMK A01 T02570112  RH  040%=      5-min Rain = 0
KTA1 140851Z 18006KT 26/11 A2998 RMK A01 T02570112  RH  040%=      5-min Rain = 0
KTA1 140852Z 18006KT 26/11 A2998 RMK A01 T02570112  RH  040%=      5-min Rain = 0
KTA1 140853Z 18006KT 26/11 A2998 RMK A01 T02570112  RH  040%=      5-min Rain = 0
KTA1 140854Z 18007KT 26/11 A2998 RMK A01 T02560112  RH  040%=      5-min Rain = 0
KTA1 140855Z 18006KT 26/11 A2998 RMK A01 T02570113  RH  041%=      5-min Rain = 0
KTA1 140856Z 18007KT 26/11 A2998 RMK A01 T02580113  RH  041%=      5-min Rain = 0
KTA1 140857Z 19009KT 26/12 A2998 RMK A01 T02590115  RH  041%=      5-min Rain = 0
KTA1 140858Z 19008KT 26/12 A2998 RMK A01 T02610116  RH  040%=      5-min Rain = 0
KTA1 140859Z 19009KT 26/12 A2998 RMK A01 T02630117  RH  040%=      5-min Rain = 0
KTA1 140900Z 19008KT 26/12 A2998 RMK A01 T02640117  RH  040%=      5-min Rain = 0
KTA1 140901Z 19009KT 26/12 A2998 RMK A01 T02640117  RH  040%=      5-min Rain = 0
KTA1 140902Z 19007KT 26/12 A2998 RMK A01 T02640117  RH  040%=      5-min Rain = 0
KTA1 140903Z 19008KT 26/12 A2998 RMK A01 T02640118  RH  040%=      5-min Rain = 0
KTA1 140904Z 19008KT 26/12 A2998 RMK A01 T02640118  RH  040%=      5-min Rain = 0
KTA1 140905Z 19008KT 26/12 A2998 RMK A01 T02640118  RH  040%=      5-min Rain = 0
KTA1 140906Z 19007KT 26/12 A2998 RMK A01 T02640119  RH  040%=      5-min Rain = 0
KTA1 140907Z 19008KT 26/12 A2998 RMK A01 T02640119  RH  040%=      5-min Rain = 0
KTA1 140908Z 19008KT 26/12 A2998 RMK A01 T02640119  RH  040%=      5-min Rain = 0
KTA1 140909Z 19008KT 26/12 A2998 RMK A01 T02640119  RH  040%=      5-min Rain = 0
KTA1 140910Z 19008KT 26/12 A2998 RMK A01 T02640120  RH  041%=      5-min Rain = 0
KTA1 140911Z 19007KT 27/12 A2998 RMK A01 T02650120  RH  041%=      5-min Rain = 0
KTA1 140912Z 19008KT 27/12 A2998 RMK A01 T02650120  RH  041%=      5-min Rain = 0
KTA1 140913Z 19008KT 27/12 A2998 RMK A01 T02650121  RH  041%=      5-min Rain = 0
KTA1 140914Z 19008KT 27/12 A2998 RMK A01 T02650121  RH  041%=      5-min Rain = 0
KTA1 140915Z 18007KT 27/12 A2998 RMK A01 T02650121  RH  041%=      5-min Rain = 0
KTA1 140916Z 18007KT 26/12 A2998 RMK A01 T02640121  RH  041%=      5-min Rain = 0
KTA1 140917Z 18007KT 26/12 A2998 RMK A01 T02640121  RH  041%=      5-min Rain = 0
KTA1 140918Z 18008KT 26/12 A2998 RMK A01 T02640121  RH  041%=      5-min Rain = 0
KTA1 140919Z 19007KT 26/12 A2998 RMK A01 T02640121  RH  041%=      5-min Rain = 0
KTA1 140920Z 19007KT 26/12 A2998 RMK A01 T02640122  RH  041%=      5-min Rain = 0
KTA1 140921Z 19007KT 26/12 A2998 RMK A01 T02630122  RH  041%=      5-min Rain = 0
KTA1 140922Z 19006KT 26/12 A2998 RMK A01 T02630122  RH  041%=      5-min Rain = 0
KTA1 140923Z 19007KT 26/12 A2998 RMK A01 T02630122  RH  042%=      5-min Rain = 0
KTA1 140924Z 19006KT 26/12 A2998 RMK A01 T02620122  RH  042%=      5-min Rain = 0
KTA1 140925Z 19007KT 26/12 A2998 RMK A01 T02610121  RH  042%=      5-min Rain = 0
KTA1 140926Z 19007KT 26/12 A2998 RMK A01 T02610122  RH  042%=      5-min Rain = 0
KTA1 140927Z 18006KT 26/12 A2998 RMK A01 T02610122  RH  042%=      5-min Rain = 0
KTA1 140928Z 19007KT 26/12 A2998 RMK A01 T02600122  RH  042%=      5-min Rain = 0
KTA1 140929Z 19007KT 26/12 A2998 RMK A01 T02600122  RH  042%=      5-min Rain = 0
KTA1 140930Z 19006KT 26/12 A2998 RMK A01 T02590122  RH  042%=      5-min Rain = 0
KTA1 140931Z 19006KT 26/12 A2998 RMK A01 T02590122  RH  042%=      5-min Rain = 0
KTA1 140932Z 19006KT 26/12 A2998 RMK A01 T02590122  RH  043%=      5-min Rain = 0
KTA1 140933Z 19006KT 26/12 A2998 RMK A01 T02590122  RH  043%=      5-min Rain = 0
KTA1 140934Z 19006KT 26/12 A2998 RMK A01 T02580122  RH  043%=      5-min Rain = 0
KTA1 140935Z 19006KT 26/12 A2998 RMK A01 T02570122  RH  043%=      5-min Rain = 0
KTA1 140936Z 19006KT 26/12 A2998 RMK A01 T02570122  RH  043%=      5-min Rain = 0
KTA1 140937Z 19006KT 26/12 A2998 RMK A01 T02570122  RH  043%=      5-min Rain = 0
KTA1 140938Z 19006KT 26/12 A2998 RMK A01 T02570123  RH  043%=      5-min Rain = 0
KTA1 140939Z 19006KT 26/12 A2998 RMK A01 T02560122  RH  043%=      5-min Rain = 0
KTA1 140940Z 19006KT 26/12 A2998 RMK A01 T02560122  RH  043%=      5-min Rain = 0
KTA1 140941Z 19006KT 26/12 A2998 RMK A01 T02550123  RH  044%=      5-min Rain = 0
KTA1 140942Z 19006KT 26/12 A2998 RMK A01 T02550123  RH  044%=      5-min Rain = 0
KTA1 140943Z 19006KT 26/12 A2998 RMK A01 T02550122  RH  044%=      5-min Rain = 0
KTA1 140944Z 18006KT 26/12 A2998 RMK A01 T02550123  RH  044%=      5-min Rain = 0
KTA1 140945Z 19006KT 25/12 A2998 RMK A01 T02540123  RH  044%=      5-min Rain = 0
KTA1 140946Z 18006KT 25/12 A2998 RMK A01 T02540123  RH  044%=      5-min Rain = 0
KTA1 140947Z 18005KT 25/12 A2998 RMK A01 T02530123  RH  044%=      5-min Rain = 0
KTA1 140948Z 19005KT 25/12 A2998 RMK A01 T02540123  RH  044%=      5-min Rain = 0
KTA1 140949Z 18005KT 25/12 A2998 RMK A01 T02530123  RH  044%=      5-min Rain = 0
KTA1 140950Z 18005KT 25/12 A2998 RMK A01 T02530123  RH  044%=      5-min Rain = 0
KTA1 140951Z 18005KT 25/12 A2998 RMK A01 T02530123  RH  044%=      5-min Rain = 0
KTA1 140952Z 18005KT 25/12 A2998 RMK A01 T02520123  RH  045%=      5-min Rain = 0
KTA1 140953Z 18005KT 25/12 A2998 RMK A01 T02520123  RH  045%=      5-min Rain = 0
KTA1 140954Z 18005KT 25/12 A2998 RMK A01 T02510123  RH  045%=      5-min Rain = 0
KTA1 140955Z 18005KT 25/12 A2998 RMK A01 T02510123  RH  045%=      5-min Rain = 0
KTA1 140956Z 18005KT 25/12 A2998 RMK A01 T02510124  RH  045%=      5-min Rain = 0
KTA1 140957Z 18005KT 25/12 A2998 RMK A01 T02500123  RH  045%=      5-min Rain = 0
KTA1 140958Z 18005KT 25/12 A2998 RMK A01 T02510124  RH  045%=      5-min Rain = 0
KTA1 140959Z 18005KT 25/12 A2998 RMK A01 T02500123  RH  045%=      5-min Rain = 0
KTA1 141000Z 18005KT 25/12 A2998 RMK A01 T02500123  RH  045%=      5-min Rain = 0
KTA1 141001Z 18006KT 25/12 A2998 RMK A01 T02500123  RH  045%=      5-min Rain = 0
KTA1 141002Z 18006KT 25/12 A2998 RMK A01 T02490123  RH  045%=      5-min Rain = 0
KTA1 141003Z 18006KT 25/12 A2998 RMK A01 T02500124  RH  045%=      5-min Rain = 0
KTA1 141004Z 18006KT 25/12 A2998 RMK A01 T02490124  RH  045%=      5-min Rain = 0
KTA1 141005Z 18006KT 25/12 A2998 RMK A01 T02490124  RH  045%=      5-min Rain = 0
KTA1 141006Z 18006KT 25/12 A2998 RMK A01 T02490123  RH  045%=      5-min Rain = 0
KTA1 141007Z 18006KT 25/12 A2998 RMK A01 T02500124  RH  045%=      5-min Rain = 0
KTA1 141008Z 18006KT 25/12 A2998 RMK A01 T02490123  RH  045%=      5-min Rain = 0
KTA1 141009Z 18005KT 25/12 A2998 RMK A01 T02490123  RH  045%=      5-min Rain = 0
KTA1 141010Z 18005KT 25/12 A2998 RMK A01 T02490123  RH  046%=      5-min Rain = 0
KTA1 141011Z 18005KT 25/12 A2998 RMK A01 T02480123  RH  046%=      5-min Rain = 0
KTA1 141012Z 18005KT 25/12 A2998 RMK A01 T02480123  RH  046%=      5-min Rain = 0
KTA1 141013Z 18005KT 25/12 A2998 RMK A01 T02470123  RH  046%=      5-min Rain = 0
KTA1 141014Z 18005KT 25/12 A2998 RMK A01 T02470123  RH  046%=      5-min Rain = 0
KTA1 141015Z 18006KT 25/12 A2998 RMK A01 T02460123  RH  046%=      5-min Rain = 0
KTA1 141016Z 18006KT 25/12 A2998 RMK A01 T02460123  RH  046%=      5-min Rain = 0
KTA1 141017Z 18006KT 25/12 A2998 RMK A01 T02460123  RH  046%=      5-min Rain = 0
KTA1 141018Z 18006KT 25/12 A2997 RMK A01 T02460123  RH  046%=      5-min Rain = 0
KTA1 141019Z 18006KT 25/12 A2997 RMK A01 T02460123  RH  046%=      5-min Rain = 0
KTA1 141020Z 18006KT 25/12 A2997 RMK A01 T02450123  RH  046%=      5-min Rain = 0
KTA1 141021Z 18006KT 25/12 A2997 RMK A01 T02460123  RH  046%=      5-min Rain = 0
KTA1 141022Z 18006KT 25/12 A2998 RMK A01 T02460123  RH  046%=      5-min Rain = 0
KTA1 141023Z 18006KT 25/12 A2997 RMK A01 T02460124  RH  046%=      5-min Rain = 0
KTA1 141024Z 18006KT 25/12 A2998 RMK A01 T02470123  RH  046%=      5-min Rain = 0
KTA1 141025Z 18006KT 25/12 A2998 RMK A01 T02470124  RH  046%=      5-min Rain = 0
KTA1 141026Z 18006KT 25/12 A2998 RMK A01 T02480124  RH  046%=      5-min Rain = 0
KTA1 141027Z 18006KT 25/12 A2998 RMK A01 T02470123  RH  046%=      5-min Rain = 0
KTA1 141028Z 18006KT 25/12 A2998 RMK A01 T02480124  RH  046%=      5-min Rain = 0
KTA1 141029Z 18006KT 25/12 A2998 RMK A01 T02480124  RH  046%=      5-min Rain = 0
KTA1 141030Z 18006KT 25/13 A2998 RMK A01 T02490125  RH  046%=      5-min Rain = 0
KTA1 141031Z 18006KT 25/12 A2998 RMK A01 T02480124  RH  046%=      5-min Rain = 0
KTA1 141032Z 18006KT 25/12 A2998 RMK A01 T02480124  RH  046%=      5-min Rain = 0
KTA1 141033Z 18006KT 25/13 A2998 RMK A01 T02490125  RH  046%=      5-min Rain = 0
KTA1 141034Z 18007KT 25/13 A2998 RMK A01 T02490125  RH  046%=      5-min Rain = 0
KTA1 141035Z 18007KT 25/13 A2998 RMK A01 T02490125  RH  046%=      5-min Rain = 0
KTA1 141036Z 18006KT 25/13 A2998 RMK A01 T02490125  RH  046%=      5-min Rain = 0
KTA1 141037Z 18007KT 25/13 A2998 RMK A01 T02490125  RH  046%=      5-min Rain = 0
KTA1 141038Z 19007KT 25/13 A2998 RMK A01 T02490126  RH  046%=      5-min Rain = 0
KTA1 141039Z 18007KT 25/13 A2998 RMK A01 T02500126  RH  046%=      5-min Rain = 0
KTA1 141040Z 19007KT 25/13 A2998 RMK A01 T02500127  RH  046%=      5-min Rain = 0
KTA1 141041Z 19007KT 25/13 A2998 RMK A01 T02510127  RH  046%=      5-min Rain = 0
KTA1 141042Z 19008KT 25/13 A2998 RMK A01 T02510127  RH  046%=      5-min Rain = 0
KTA1 141043Z 19007KT 25/13 A2998 RMK A01 T02510127  RH  046%=      5-min Rain = 0
KTA1 141044Z 19007KT 25/13 A2998 RMK A01 T02510127  RH  046%=      5-min Rain = 0
KTA1 141045Z 19007KT 25/13 A2998 RMK A01 T02500127  RH  046%=      5-min Rain = 0
KTA1 141046Z 19007KT 25/13 A2998 RMK A01 T02500127  RH  046%=      5-min Rain = 0
KTA1 141047Z 19007KT 25/13 A2998 RMK A01 T02500127  RH  046%=      5-min Rain = 0
KTA1 141048Z 19007KT 25/13 A2998 RMK A01 T02500127  RH  046%=      5-min Rain = 0
KTA1 141049Z 19007KT 25/13 A2998 RMK A01 T02500127  RH  046%=      5-min Rain = 0
KTA1 141050Z 19007KT 25/13 A2998 RMK A01 T02500127  RH  046%=      5-min Rain = 0
KTA1 141051Z 19007KT 25/13 A2998 RMK A01 T02500128  RH  047%=      5-min Rain = 0
KTA1 141052Z 19007KT 25/13 A2998 RMK A01 T02500128  RH  047%=      5-min Rain = 0
KTA1 141053Z 19007KT 25/13 A2998 RMK A01 T02500127  RH  047%=      5-min Rain = 0
KTA1 141054Z 19007KT 25/13 A2998 RMK A01 T02490127  RH  047%=      5-min Rain = 0
KTA1 141055Z 19007KT 25/13 A2998 RMK A01 T02490128  RH  047%=      5-min Rain = 0
KTA1 141056Z 19008KT 25/13 A2998 RMK A01 T02490128  RH  047%=      5-min Rain = 0
KTA1 141057Z 19007KT 25/13 A2998 RMK A01 T02490128  RH  047%=      5-min Rain = 0
KTA1 141058Z 18007KT 25/13 A2998 RMK A01 T02490128  RH  047%=      5-min Rain = 0
KTA1 141059Z 18007KT 25/13 A2998 RMK A01 T02490129  RH  047%=      5-min Rain = 0
KTA1 141100Z 18007KT 25/13 A2998 RMK A01 T02490129  RH  047%=      5-min Rain = 0
KTA1 141101Z 19007KT 25/13 A2998 RMK A01 T02490129  RH  047%=      5-min Rain = 0
KTA1 141102Z 19007KT 25/13 A2998 RMK A01 T02490129  RH  047%=      5-min Rain = 0
KTA1 141103Z 19006KT 25/13 A2998 RMK A01 T02490129  RH  047%=      5-min Rain = 0
KTA1 141104Z 18007KT 25/13 A2998 RMK A01 T02490129  RH  047%=      5-min Rain = 0
KTA1 141105Z 19006KT 25/13 A2998 RMK A01 T02490129  RH  047%=      5-min Rain = 0
KTA1 141106Z 19007KT 25/13 A2999 RMK A01 T02480129  RH  047%=      5-min Rain = 0
KTA1 141107Z 19007KT 25/13 A2999 RMK A01 T02480129  RH  048%=      5-min Rain = 0
KTA1 141108Z 19008KT 25/13 A2999 RMK A01 T02480129  RH  048%=      5-min Rain = 0
KTA1 141109Z 19007KT 25/13 A2999 RMK A01 T02470130  RH  048%=      5-min Rain = 0
KTA1 141110Z 18007KT 25/13 A2999 RMK A01 T02470130  RH  048%=      5-min Rain = 0
KTA1 141111Z 18007KT 25/13 A2999 RMK A01 T02470130  RH  048%=      5-min Rain = 0
KTA1 141112Z 18007KT 25/13 A2999 RMK A01 T02470130  RH  048%=      5-min Rain = 0
KTA1 141113Z 18007KT 25/13 A2999 RMK A01 T02470130  RH  048%=      5-min Rain = 0
KTA1 141114Z 18007KT 25/13 A2999 RMK A01 T02460129  RH  048%=      5-min Rain = 0
KTA1 141115Z 18007KT 25/13 A2999 RMK A01 T02460130  RH  048%=      5-min Rain = 0
KTA1 141116Z 18007KT 25/13 A2999 RMK A01 T02460129  RH  048%=      5-min Rain = 0
KTA1 141117Z 18006KT 25/13 A2999 RMK A01 T02460130  RH  048%=      5-min Rain = 0
KTA1 141118Z 18006KT 25/13 A2999 RMK A01 T02450129  RH  048%=      5-min Rain = 0
KTA1 141119Z 18006KT 25/13 A2999 RMK A01 T02450129  RH  048%=      5-min Rain = 0
KTA1 141120Z 18006KT 25/13 A2999 RMK A01 T02450129  RH  049%=      5-min Rain = 0
KTA1 141121Z 18006KT 24/13 A2999 RMK A01 T02440129  RH  049%=      5-min Rain = 0
KTA1 141122Z 18005KT 24/13 A2999 RMK A01 T02440129  RH  049%=      5-min Rain = 0
KTA1 141123Z 18006KT 24/13 A2999 RMK A01 T02440129  RH  049%=      5-min Rain = 0
KTA1 141124Z 18005KT 24/13 A2999 RMK A01 T02430129  RH  049%=      5-min Rain = 0
KTA1 141125Z 19006KT 24/13 A2999 RMK A01 T02420129  RH  049%=      5-min Rain = 0
KTA1 141126Z 18006KT 24/13 A2999 RMK A01 T02420129  RH  049%=      5-min Rain = 0
KTA1 141127Z 19005KT 24/13 A2999 RMK A01 T02420129  RH  049%=      5-min Rain = 0
KTA1 141128Z 19005KT 24/13 A2999 RMK A01 T02410129  RH  049%=      5-min Rain = 0
KTA1 141129Z 19005KT 24/13 A2999 RMK A01 T02410129  RH  050%=      5-min Rain = 0
KTA1 141130Z 20005KT 24/13 A2999 RMK A01 T02400129  RH  050%=      5-min Rain = 0
KTA1 141131Z 19005KT 24/13 A2999 RMK A01 T02390129  RH  050%=      5-min Rain = 0
KTA1 141132Z 19005KT 24/13 A2999 RMK A01 T02380129  RH  050%=      5-min Rain = 0
KTA1 141133Z 19005KT 24/13 A2999 RMK A01 T02380129  RH  050%=      5-min Rain = 0
KTA1 141134Z 19006KT 24/13 A2999 RMK A01 T02370129  RH  050%=      5-min Rain = 0
KTA1 141135Z 19005KT 24/13 A2999 RMK A01 T02370129  RH  051%=      5-min Rain = 0
KTA1 141136Z 19006KT 24/13 A2999 RMK A01 T02360128  RH  051%=      5-min Rain = 0
KTA1 141137Z 18005KT 24/13 A2999 RMK A01 T02360128  RH  051%=      5-min Rain = 0
KTA1 141138Z 18005KT 24/13 A2999 RMK A01 T02360129  RH  051%=      5-min Rain = 0
KTA1 141139Z 18005KT 24/13 A2999 RMK A01 T02350128  RH  051%=      5-min Rain = 0
KTA1 141140Z 18005KT 24/13 A2999 RMK A01 T02350128  RH  051%=      5-min Rain = 0
KTA1 141141Z 19005KT 23/13 A2999 RMK A01 T02340128  RH  051%=      5-min Rain = 0
KTA1 141142Z 19005KT 23/13 A2999 RMK A01 T02340128  RH  051%=      5-min Rain = 0
KTA1 141143Z 19004KT 23/13 A2999 RMK A01 T02330128  RH  052%=      5-min Rain = 0
KTA1 141144Z 19005KT 23/13 A2999 RMK A01 T02330128  RH  052%=      5-min Rain = 0
KTA1 141145Z 19004KT 23/13 A2999 RMK A01 T02320128  RH  052%=      5-min Rain = 0
KTA1 141146Z 19004KT 23/13 A30 RMK A01 T02320128  RH  052%=      5-min Rain = 0
KTA1 141147Z 19004KT 23/13 A30 RMK A01 T02310128  RH  052%=      5-min Rain = 0
KTA1 141148Z 19004KT 23/13 A30 RMK A01 T02310128  RH  052%=      5-min Rain = 0
KTA1 141149Z 19004KT 23/13 A30 RMK A01 T02310128  RH  052%=      5-min Rain = 0
KTA1 141150Z 19004KT 23/13 A30 RMK A01 T02300127  RH  052%=      5-min Rain = 0
KTA1 141151Z 18004KT 23/13 A30 RMK A01 T02290127  RH  053%=      5-min Rain = 0
KTA1 141152Z 18004KT 23/13 A30 RMK A01 T02290127  RH  053%=      5-min Rain = 0
KTA1 141153Z 18004KT 23/13 A30 RMK A01 T02290128  RH  053%=      5-min Rain = 0
KTA1 141154Z 18004KT 23/13 A30 RMK A01 T02280127  RH  053%=      5-min Rain = 0
KTA1 141155Z 17004KT 23/13 A30 RMK A01 T02270127  RH  053%=      5-min Rain = 0
KTA1 141156Z 17004KT 23/13 A30 RMK A01 T02270127  RH  053%=      5-min Rain = 0
KTA1 141157Z 18004KT 23/13 A30 RMK A01 T02270127  RH  053%=      5-min Rain = 0
KTA1 141158Z 18004KT 23/13 A30 RMK A01 T02270127  RH  053%=      5-min Rain = 0
KTA1 141159Z 18004KT 23/13 A30 RMK A01 T02270127  RH  053%=      5-min Rain = 0
KTA1 141200Z 18004KT 23/13 A30 RMK A01 T02270127  RH  053%=      5-min Rain = 0
KTA1 141201Z 18004KT 23/13 A30 RMK A01 T02270127  RH  053%=      5-min Rain = 0
KTA1 141202Z 18004KT 23/13 A30 RMK A01 T02270127  RH  053%=      5-min Rain = 0
KTA1 141203Z 18005KT 23/13 A30 RMK A01 T02270127  RH  053%=      5-min Rain = 0
KTA1 141204Z 18005KT 23/13 A30 RMK A01 T02260127  RH  053%=      5-min Rain = 0
KTA1 141205Z 17005KT 23/13 A30 RMK A01 T02260127  RH  054%=      5-min Rain = 0
KTA1 141206Z 17005KT 23/13 A30 RMK A01 T02260127  RH  054%=      5-min Rain = 0
KTA1 141207Z 17005KT 23/13 A30 RMK A01 T02250127  RH  054%=      5-min Rain = 0
KTA1 141208Z 17005KT 23/13 A30 RMK A01 T02250127  RH  054%=      5-min Rain = 0
KTA1 141209Z 17005KT 23/13 A30 RMK A01 T02250126  RH  053%=      5-min Rain = 0
KTA1 141210Z 17005KT 23/13 A30 RMK A01 T02250127  RH  054%=      5-min Rain = 0
KTA1 141211Z 17004KT 23/13 A30 RMK A01 T02250126  RH  054%=      5-min Rain = 0
KTA1 141212Z 17004KT 23/13 A30 RMK A01 T02250126  RH  054%=      5-min Rain = 0
KTA1 141213Z 17004KT 22/13 A30 RMK A01 T02240126  RH  054%=      5-min Rain = 0
KTA1 141214Z 18004KT 23/13 A30 RMK A01 T02250127  RH  054%=      5-min Rain = 0
KTA1 141215Z 18004KT 23/13 A30 RMK A01 T02250127  RH  054%=      5-min Rain = 0
KTA1 141216Z 18004KT 22/13 A30 RMK A01 T02240126  RH  054%=      5-min Rain = 0
KTA1 141217Z 18005KT 23/13 A30 RMK A01 T02250126  RH  054%=      5-min Rain = 0
KTA1 141218Z 18005KT 23/13 A30 RMK A01 T02250127  RH  054%=      5-min Rain = 0
KTA1 141219Z 19004KT 23/13 A30 RMK A01 T02260127  RH  054%=      5-min Rain = 0
KTA1 141220Z 18004KT 23/13 A30 RMK A01 T02260127  RH  053%=      5-min Rain = 0
KTA1 141221Z 18004KT 23/13 A30 RMK A01 T02260127  RH  053%=      5-min Rain = 0
KTA1 141222Z 18005KT 23/13 A30 RMK A01 T02260127  RH  053%=      5-min Rain = 0
KTA1 141223Z 18005KT 23/13 A30 RMK A01 T02260127  RH  053%=      5-min Rain = 0
KTA1 141224Z 18004KT 23/13 A30 RMK A01 T02270127  RH  053%=      5-min Rain = 0
KTA1 141225Z 19004KT 23/13 A30 RMK A01 T02270127  RH  053%=      5-min Rain = 0
KTA1 141226Z 19004KT 23/13 A30 RMK A01 T02270126  RH  053%=      5-min Rain = 0
KTA1 141227Z 20004KT 23/13 A3001 RMK A01 T02270127  RH  053%=      5-min Rain = 0
KTA1 141228Z 21004KT 23/13 A3001 RMK A01 T02270127  RH  053%=      5-min Rain = 0
KTA1 141229Z 21004KT 23/13 A3001 RMK A01 T02270127  RH  053%=      5-min Rain = 0
KTA1 141230Z 22004KT 23/13 A3001 RMK A01 T02270127  RH  053%=      5-min Rain = 0
KTA1 141231Z 22004KT 23/13 A3001 RMK A01 T02270127  RH  053%=      5-min Rain = 0
KTA1 141232Z 23004KT 23/13 A3001 RMK A01 T02270128  RH  053%=      5-min Rain = 0
KTA1 141233Z 23004KT 23/13 A3001 RMK A01 T02260127  RH  053%=      5-min Rain = 0
KTA1 141234Z 22004KT 23/13 A3001 RMK A01 T02270128  RH  054%=      5-min Rain = 0
KTA1 141235Z 22004KT 23/13 A3001 RMK A01 T02260128  RH  054%=      5-min Rain = 0
KTA1 141236Z 23003KT 23/13 A3001 RMK A01 T02270128  RH  054%=      5-min Rain = 0
KTA1 141237Z 23004KT 23/13 A3001 RMK A01 T02270128  RH  054%=      5-min Rain = 0
KTA1 141238Z 24003KT 23/13 A3002 RMK A01 T02270128  RH  054%=      5-min Rain = 0
KTA1 141239Z 26003KT 23/13 A3002 RMK A01 T02270129  RH  054%=      5-min Rain = 0
KTA1 141240Z 26003KT 23/13 A3002 RMK A01 T02270129  RH  054%=      5-min Rain = 0
KTA1 141241Z 26004KT 23/13 A3002 RMK A01 T02280129  RH  054%=      5-min Rain = 0
KTA1 141242Z 26004KT 23/13 A3002 RMK A01 T02280129  RH  054%=      5-min Rain = 0
KTA1 141243Z 25004KT 23/13 A3002 RMK A01 T02280129  RH  053%=      5-min Rain = 0
KTA1 141244Z 24004KT 23/13 A3002 RMK A01 T02290129  RH  053%=      5-min Rain = 0
KTA1 141245Z 23003KT 23/13 A3002 RMK A01 T02290128  RH  053%=      5-min Rain = 0
KTA1 141246Z 22004KT 23/13 A3002 RMK A01 T02300128  RH  053%=      5-min Rain = 0
KTA1 141247Z 22004KT 23/13 A3002 RMK A01 T02310129  RH  053%=      5-min Rain = 0
KTA1 141248Z 21004KT 23/13 A3002 RMK A01 T02310129  RH  053%=      5-min Rain = 0
KTA1 141249Z 21004KT 23/13 A3002 RMK A01 T02310129  RH  053%=      5-min Rain = 0
KTA1 141250Z 21004KT 23/13 A3002 RMK A01 T02320129  RH  052%=      5-min Rain = 0
KTA1 141251Z 21003KT 23/13 A3002 RMK A01 T02330130  RH  052%=      5-min Rain = 0
KTA1 141252Z 21004KT 23/13 A3002 RMK A01 T02330130  RH  052%=      5-min Rain = 0
KTA1 141253Z 21004KT 23/13 A3002 RMK A01 T02330130  RH  052%=      5-min Rain = 0
KTA1 141254Z 20003KT 23/13 A3002 RMK A01 T02330131  RH  053%=      5-min Rain = 0
KTA1 141255Z 21003KT 23/13 A3002 RMK A01 T02340132  RH  053%=      5-min Rain = 0
KTA1 141256Z 22003KT 24/13 A3002 RMK A01 T02350132  RH  052%=      5-min Rain = 0
KTA1 141257Z 23003KT 24/13 A3002 RMK A01 T02360132  RH  052%=      5-min Rain = 0
KTA1 141258Z 23003KT 24/13 A3002 RMK A01 T02370133  RH  052%=      5-min Rain = 0
KTA1 141259Z 24003KT 24/13 A3002 RMK A01 T02370133  RH  052%=      5-min Rain = 0
KTA1 141300Z 24003KT 24/13 A3002 RMK A01 T02370133  RH  052%=      5-min Rain = 0
KTA1 141301Z 25003KT 24/13 A3002 RMK A01 T02370133  RH  052%=      5-min Rain = 0
KTA1 141302Z 26003KT 24/13 A3002 RMK A01 T02370133  RH  052%=      5-min Rain = 0
KTA1 141303Z 27003KT 24/13 A3003 RMK A01 T02370134  RH  052%=      5-min Rain = 0
KTA1 141304Z 29004KT 24/14 A3003 RMK A01 T02380135  RH  053%=      5-min Rain = 0
KTA1 141305Z 28004KT 24/14 A3003 RMK A01 T02370135  RH  053%=      5-min Rain = 0
KTA1 141306Z 28003KT 24/14 A3003 RMK A01 T02380135  RH  052%=      5-min Rain = 0
KTA1 141307Z 29003KT 24/14 A3003 RMK A01 T02400135  RH  052%=      5-min Rain = 0
KTA1 141308Z 29003KT 24/14 A3003 RMK A01 T02410135  RH  052%=      5-min Rain = 0
KTA1 141309Z 30003KT 24/14 A3003 RMK A01 T02420135  RH  051%=      5-min Rain = 0
KTA1 141310Z 29004KT 24/14 A3003 RMK A01 T02420136  RH  051%=      5-min Rain = 0
KTA1 141311Z 29004KT 24/13 A3003 RMK A01 T02420134  RH  051%=      5-min Rain = 0
KTA1 141312Z 28003KT 24/13 A3003 RMK A01 T02420134  RH  051%=      5-min Rain = 0
KTA1 141313Z 28003KT 24/13 A3003 RMK A01 T02420133  RH  051%=      5-min Rain = 0
KTA1 141314Z 27003KT 24/13 A3003 RMK A01 T02430134  RH  051%=      5-min Rain = 0
KTA1 141315Z 27003KT 24/13 A3003 RMK A01 T02430134  RH  050%=      5-min Rain = 0
KTA1 141316Z 27003KT 24/13 A3003 RMK A01 T02430134  RH  050%=      5-min Rain = 0
KTA1 141317Z 27003KT 24/14 A3003 RMK A01 T02430135  RH  051%=      5-min Rain = 0
KTA1 141318Z 26003KT 24/14 A3003 RMK A01 T02440135  RH  051%=      5-min Rain = 0
KTA1 141319Z 26003KT 24/13 A3003 RMK A01 T02430134  RH  050%=      5-min Rain = 0
KTA1 141320Z 25003KT 24/13 A3003 RMK A01 T02440134  RH  050%=      5-min Rain = 0
KTA1 141321Z 25003KT 24/13 A3003 RMK A01 T02440134  RH  050%=      5-min Rain = 0
KTA1 141322Z 24003KT 25/14 A3003 RMK A01 T02450135  RH  050%=      5-min Rain = 0
KTA1 141323Z 24003KT 25/14 A3003 RMK A01 T02460136  RH  050%=      5-min Rain = 0
KTA1 141324Z 24003KT 25/14 A3003 RMK A01 T02460135  RH  050%=      5-min Rain = 0
KTA1 141325Z 24003KT 25/14 A3003 RMK A01 T02470135  RH  050%=      5-min Rain = 0
KTA1 141326Z 25003KT 25/14 A3003 RMK A01 T02480135  RH  049%=      5-min Rain = 0
KTA1 141327Z 26004KT 25/14 A3003 RMK A01 T02490136  RH  049%=      5-min Rain = 0
KTA1 141328Z 26004KT 25/14 A3003 RMK A01 T02500135  RH  049%=      5-min Rain = 0
KTA1 141329Z 26003KT 25/14 A3003 RMK A01 T02510135  RH  049%=      5-min Rain = 0
KTA1 141330Z 25003KT 25/14 A3003 RMK A01 T02520136  RH  049%=      5-min Rain = 0
KTA1 141331Z 24003KT 25/14 A3003 RMK A01 T02530136  RH  048%=      5-min Rain = 0
KTA1 141332Z 24003KT 25/14 A3003 RMK A01 T02540136  RH  048%=      5-min Rain = 0
KTA1 141333Z 25004KT 26/14 A3003 RMK A01 T02550136  RH  048%=      5-min Rain = 0
KTA1 141334Z 24003KT 26/14 A3003 RMK A01 T02560136  RH  047%=      5-min Rain = 0
KTA1 141335Z 24003KT 26/14 A3003 RMK A01 T02570136  RH  047%=      5-min Rain = 0
KTA1 141336Z 25003KT 26/14 A3003 RMK A01 T02580136  RH  047%=      5-min Rain = 0
KTA1 141337Z 26002KT 26/14 A3003 RMK A01 T02590138  RH  047%=      5-min Rain = 0
KTA1 141338Z 27003KT 26/14 A3003 RMK A01 T02590137  RH  047%=      5-min Rain = 0
KTA1 141339Z 26003KT 26/14 A3003 RMK A01 T02600138  RH  047%=      5-min Rain = 0
KTA1 141340Z 24003KT 26/14 A3003 RMK A01 T02600137  RH  047%=      5-min Rain = 0
KTA1 141341Z 24004KT 26/14 A3003 RMK A01 T02620137  RH  046%=      5-min Rain = 0
KTA1 141342Z 23003KT 26/14 A3003 RMK A01 T02620136  RH  046%=      5-min Rain = 0
KTA1 141343Z 24003KT 26/14 A3003 RMK A01 T02640136  RH  045%=      5-min Rain = 0
KTA1 141344Z 23003KT 27/14 A3003 RMK A01 T02650137  RH  045%=      5-min Rain = 0
KTA1 141345Z 24003KT 27/14 A3003 RMK A01 T02660137  RH  045%=      5-min Rain = 0
KTA1 141346Z 24004KT 27/14 A3003 RMK A01 T02670137  RH  045%=      5-min Rain = 0
KTA1 141347Z 24004KT 27/14 A3003 RMK A01 T02680137  RH  044%=      5-min Rain = 0
KTA1 141348Z 23005KT 27/14 A3003 RMK A01 T02680137  RH  044%=      5-min Rain = 0
KTA1 141349Z 23004KT 27/14 A3003 RMK A01 T02680136  RH  044%=      5-min Rain = 0
KTA1 141350Z 22004KT 27/14 A3003 RMK A01 T02690137  RH  044%=      5-min Rain = 0
KTA1 141351Z 23004KT 27/14 A3004 RMK A01 T02690137  RH  044%=      5-min Rain = 0
KTA1 141352Z 22004KT 27/14 A3004 RMK A01 T02700137  RH  044%=      5-min Rain = 0
KTA1 141353Z 23004KT 27/14 A3004 RMK A01 T02710138  RH  044%=      5-min Rain = 0
KTA1 141354Z 23004KT 27/14 A3004 RMK A01 T02710138  RH  044%=      5-min Rain = 0
KTA1 141355Z 22004KT 27/14 A3004 RMK A01 T02730139  RH  044%=      5-min Rain = 0
KTA1 141356Z 22006KT 27/14 A3004 RMK A01 T02740138  RH  043%=      5-min Rain = 0
KTA1 141357Z 21006KT 27/14 A3004 RMK A01 T02740137  RH  043%=      5-min Rain = 0
KTA1 141358Z 21006KT 27/14 A3004 RMK A01 T02740138  RH  043%=      5-min Rain = 0
KTA1 141359Z 20007KT 27/14 A3004 RMK A01 T02740137  RH  043%=      5-min Rain = 0
KTA1 141400Z 20005KT 28/14 A3004 RMK A01 T02750138  RH  043%=      5-min Rain = 0
KTA1 141401Z 21005KT 28/14 A3004 RMK A01 T02750138  RH  043%=      5-min Rain = 0
KTA1 141402Z 20005KT 28/14 A3004 RMK A01 T02760139  RH  043%=      5-min Rain = 0
KTA1 141403Z 19006KT 28/14 A3004 RMK A01 T02770140  RH  043%=      5-min Rain = 0
KTA1 141404Z 19007KT 28/14 A3004 RMK A01 T02780140  RH  043%=      5-min Rain = 0
KTA1 141405Z 18008KT 28/14 A3004 RMK A01 T02780140  RH  043%=      5-min Rain = 0
KTA1 141406Z 19009KT 28/14 A3004 RMK A01 T02800140  RH  042%=      5-min Rain = 0
KTA1 141407Z 20010KT 28/14 A3004 RMK A01 T02810139  RH  042%=      5-min Rain = 0
KTA1 141408Z 19007KT 28/14 A3004 RMK A01 T02820140  RH  042%=      5-min Rain = 0
KTA1 141409Z 18006KT 28/14 A3004 RMK A01 T02830141  RH  042%=      5-min Rain = 0
KTA1 141410Z 19007KT 28/14 A3004 RMK A01 T02840141  RH  042%=      5-min Rain = 0
KTA1 141411Z 18008KT 29/14 A3004 RMK A01 T02860141  RH  041%=      5-min Rain = 0
KTA1 141412Z 18008KT 29/14 A3004 RMK A01 T02860141  RH  041%=      5-min Rain = 0
KTA1 141413Z 18010KT 29/14 A3004 RMK A01 T02870141  RH  041%=      5-min Rain = 0
KTA1 141414Z 18008KT 29/14 A3004 RMK A01 T02870141  RH  041%=      5-min Rain = 0
KTA1 141415Z 18008KT 29/14 A3004 RMK A01 T02870140  RH  041%=      5-min Rain = 0
KTA1 141416Z 19008KT 29/14 A3004 RMK A01 T02870142  RH  041%=      5-min Rain = 0
KTA1 141417Z 19009KT 29/14 A3003 RMK A01 T02880141  RH  041%=      5-min Rain = 0
KTA1 141418Z 19008KT 29/14 A3004 RMK A01 T02880141  RH  041%=      5-min Rain = 0
KTA1 141419Z 19008KT 29/14 A3003 RMK A01 T02880141  RH  041%=      5-min Rain = 0
KTA1 141420Z 18007KT 29/14 A3003 RMK A01 T02880142  RH  041%=      5-min Rain = 0
KTA1 141421Z 19010KT 29/14 A3003 RMK A01 T02890141  RH  040%=      5-min Rain = 0
KTA1 141422Z 19010KT 29/14 A3003 RMK A01 T02900141  RH  040%=      5-min Rain = 0
KTA1 141423Z 19010KT 29/14 A3003 RMK A01 T02900141  RH  040%=      5-min Rain = 0
KTA1 141424Z 19009KT 29/14 A3003 RMK A01 T02910143  RH  040%=      5-min Rain = 0
KTA1 141425Z 19011KT 29/14 A3003 RMK A01 T02930142  RH  040%=      5-min Rain = 0
KTA1 141426Z 19011KT 29/14 A3003 RMK A01 T02930142  RH  040%=      5-min Rain = 0
KTA1 141427Z 19012KT 29/14 A3003 RMK A01 T02930142  RH  040%=      5-min Rain = 0
KTA1 141428Z 19012KT 30/14 A3003 RMK A01 T02950142  RH  039%=      5-min Rain = 0
KTA1 141429Z 20014KT 30/14 A3003 RMK A01 T02970141  RH  039%=      5-min Rain = 0
KTA1 141430Z 19013KT 30/14 A3003 RMK A01 T02980141  RH  038%=      5-min Rain = 0
KTA1 141431Z 20013KT 30/14 A3003 RMK A01 T02990141  RH  038%=      5-min Rain = 0
KTA1 141432Z 20011KT 30/14 A3003 RMK A01 T02990141  RH  038%=      5-min Rain = 0
KTA1 141433Z 20010KT 30/14 A3003 RMK A01 T03010142  RH  038%=      5-min Rain = 0
KTA1 141434Z 19008G13KT 30/14 A3003 RMK A01 T03020143  RH  038%=      5-min Rain = 0
KTA1 141435Z 20010KT 30/14 A3003 RMK A01 T03040143  RH  038%=      5-min Rain = 0
KTA1 141436Z 20011G16KT 31/14 A3003 RMK A01 T03060143  RH  037%=      5-min Rain = 0
KTA1 141437Z 20012KT 31/14 A3003 RMK A01 T03050141  RH  037%=      5-min Rain = 0
KTA1 141438Z 20011KT 31/14 A3003 RMK A01 T03060141  RH  037%=      5-min Rain = 0
KTA1 141439Z 20011KT 31/14 A3003 RMK A01 T03060141  RH  037%=      5-min Rain = 0
KTA1 141440Z 20010KT 31/14 A3003 RMK A01 T03070142  RH  037%=      5-min Rain = 0
KTA1 141441Z 20012KT 31/14 A3003 RMK A01 T03080141  RH  036%=      5-min Rain = 0
KTA1 141442Z 20010KT 31/14 A3003 RMK A01 T03080141  RH  036%=      5-min Rain = 0
KTA1 141443Z 19012KT 31/14 A3003 RMK A01 T03090142  RH  036%=      5-min Rain = 0
KTA1 141444Z 19013KT 31/14 A3003 RMK A01 T03090141  RH  036%=      5-min Rain = 0
KTA1 141445Z 19012KT 31/14 A3003 RMK A01 T03100141  RH  036%=      5-min Rain = 0
KTA1 141446Z 19012KT 31/14 A3003 RMK A01 T03110141  RH  036%=      5-min Rain = 0
KTA1 141447Z 19014KT 31/14 A3003 RMK A01 T03130140  RH  035%=      5-min Rain = 0
KTA1 141448Z 20012G18KT 31/14 A3003 RMK A01 T03130140  RH  035%=      5-min Rain = 0
KTA1 141449Z 20014G19KT 31/14 A3003 RMK A01 T03130139  RH  035%=      5-min Rain = 0
KTA1 141450Z 20012KT 31/14 A3003 RMK A01 T03130140  RH  035%=      5-min Rain = 0
KTA1 141451Z 20013KT 31/14 A3003 RMK A01 T03130140  RH  035%=      5-min Rain = 0
KTA1 141452Z 20011KT 31/14 A3003 RMK A01 T03130140  RH  035%=      5-min Rain = 0
KTA1 141453Z 20013KT 31/14 A3003 RMK A01 T03130140  RH  035%=      5-min Rain = 0
KTA1 141454Z 20012KT 31/14 A3003 RMK A01 T03140139  RH  035%=      5-min Rain = 0
KTA1 141455Z 20013KT 32/14 A3003 RMK A01 T03150139  RH  034%=      5-min Rain = 0
KTA1 141456Z 20010KT 32/14 A3003 RMK A01 T03150140  RH  035%=      5-min Rain = 0
KTA1 141457Z 20012KT 32/14 A3003 RMK A01 T03160139  RH  034%=      5-min Rain = 0
KTA1 141458Z 20013KT 32/14 A3003 RMK A01 T03160139  RH  034%=      5-min Rain = 0
KTA1 141459Z 20012KT 32/14 A3003 RMK A01 T03160140  RH  034%=      5-min Rain = 0
KTA1 141500Z 20011KT 32/14 A3003 RMK A01 T03160140  RH  034%=      5-min Rain = 0
KTA1 141501Z 19012KT 32/14 A3003 RMK A01 T03170141  RH  034%=      5-min Rain = 0
KTA1 141502Z 19014KT 32/14 A3003 RMK A01 T03180140  RH  034%=      5-min Rain = 0
KTA1 141503Z 20014KT 32/14 A3003 RMK A01 T03180139  RH  034%=      5-min Rain = 0
KTA1 141504Z 19013KT 32/14 A3003 RMK A01 T03180139  RH  034%=      5-min Rain = 0
KTA1 141505Z 20012KT 32/14 A3003 RMK A01 T03180139  RH  034%=      5-min Rain = 0
KTA1 141506Z 20011KT 32/14 A3003 RMK A01 T03200141  RH  034%=      5-min Rain = 0
KTA1 141507Z 20010KT 32/14 A3003 RMK A01 T03210141  RH  034%=      5-min Rain = 0
KTA1 141508Z 19014KT 32/14 A3003 RMK A01 T03210141  RH  034%=      5-min Rain = 0
KTA1 141509Z 19013KT 32/14 A3003 RMK A01 T03210140  RH  033%=      5-min Rain = 0
KTA1 141510Z 20015KT 32/14 A3003 RMK A01 T03220138  RH  033%=      5-min Rain = 0
KTA1 141511Z 20013KT 32/14 A3003 RMK A01 T03220137  RH  033%=      5-min Rain = 0
KTA1 141512Z 20012KT 32/14 A3003 RMK A01 T03220138  RH  033%=      5-min Rain = 0
KTA1 141513Z 19014KT 32/14 A3003 RMK A01 T03230138  RH  033%=      5-min Rain = 0
KTA1 141514Z 19013G18KT 33/14 A3003 RMK A01 T03250137  RH  032%=      5-min Rain = 0
KTA1 141515Z 20014KT 33/14 A3003 RMK A01 T03260137  RH  032%=      5-min Rain = 0
KTA1 141516Z 20013KT 33/14 A3003 RMK A01 T03250137  RH  032%=      5-min Rain = 0
KTA1 141517Z 20013KT 33/14 A3003 RMK A01 T03250138  RH  032%=      5-min Rain = 0
KTA1 141518Z 20011KT 33/14 A3003 RMK A01 T03250139  RH  032%=      5-min Rain = 0
KTA1 141519Z 21012KT 33/14 A3003 RMK A01 T03260138  RH  032%=      5-min Rain = 0
KTA1 141520Z 20012KT 33/14 A3003 RMK A01 T03270136  RH  032%=      5-min Rain = 0
KTA1 141521Z 21012KT 33/14 A3003 RMK A01 T03270138  RH  032%=      5-min Rain = 0
KTA1 141522Z 20014KT 33/14 A3003 RMK A01 T03270137  RH  032%=      5-min Rain = 0
KTA1 141523Z 20015KT 33/14 A3003 RMK A01 T03260137  RH  032%=      5-min Rain = 0
KTA1 141524Z 20014KT 33/14 A3003 RMK A01 T03260137  RH  032%=      5-min Rain = 0
KTA1 141525Z 20014KT 33/14 A3003 RMK A01 T03260137  RH  032%=      5-min Rain = 0
KTA1 141526Z 20012KT 33/14 A3003 RMK A01 T03250138  RH  032%=      5-min Rain = 0
KTA1 141527Z 19013G18KT 33/14 A3003 RMK A01 T03260137  RH  032%=      5-min Rain = 0
KTA1 141528Z 19016KT 33/14 A3003 RMK A01 T03270138  RH  032%=      5-min Rain = 0
KTA1 141529Z 21013KT 33/14 A3003 RMK A01 T03260138  RH  032%=      5-min Rain = 0
KTA1 141530Z 20014KT 33/14 A3003 RMK A01 T03260138  RH  032%=      5-min Rain = 0
KTA1 141531Z 19013KT 33/14 A3003 RMK A01 T03280139  RH  032%=      5-min Rain = 0
KTA1 141532Z 19012KT 33/14 A3003 RMK A01 T03290139  RH  032%=      5-min Rain = 0
KTA1 141533Z 19010KT 33/14 A3003 RMK A01 T03300139  RH  032%=      5-min Rain = 0
KTA1 141534Z 20016KT 33/14 A3003 RMK A01 T03310139  RH  031%=      5-min Rain = 0
KTA1 141535Z 20011KT 33/14 A3003 RMK A01 T03310139  RH  031%=      5-min Rain = 0
KTA1 141536Z 19016KT 33/14 A3003 RMK A01 T03300138  RH  031%=      5-min Rain = 0
KTA1 141537Z 18013KT 33/14 A3003 RMK A01 T03290138  RH  031%=      5-min Rain = 0
KTA1 141538Z 18014KT 33/14 A3003 RMK A01 T03300138  RH  031%=      5-min Rain = 0
KTA1 141539Z 19012KT 33/14 A3002 RMK A01 T03300138  RH  031%=      5-min Rain = 0
KTA1 141540Z 19012KT 33/14 A3002 RMK A01 T03310137  RH  031%=      5-min Rain = 0
KTA1 141541Z 18013KT 33/14 A3002 RMK A01 T03310138  RH  031%=      5-min Rain = 0
KTA1 141542Z 19014G19KT 33/14 A3002 RMK A01 T03330138  RH  031%=      5-min Rain = 0
KTA1 141543Z 18014KT 33/14 A3002 RMK A01 T03340137  RH  031%=      5-min Rain = 0
KTA1 141544Z 19013KT 33/14 A3002 RMK A01 T03330137  RH  031%=      5-min Rain = 0
KTA1 141545Z 20013KT 33/14 A3002 RMK A01 T03330137  RH  031%=      5-min Rain = 0
KTA1 141546Z 20014KT 34/14 A3002 RMK A01 T03350137  RH  030%=      5-min Rain = 0
KTA1 141547Z 20012KT 34/14 A3002 RMK A01 T03360136  RH  030%=      5-min Rain = 0
KTA1 141548Z 20012KT 34/14 A3002 RMK A01 T03360136  RH  030%=      5-min Rain = 0
KTA1 141549Z 20015KT 34/14 A3002 RMK A01 T03370136  RH  030%=      5-min Rain = 0
KTA1 141550Z 20013KT 34/13 A3002 RMK A01 T03370134  RH  029%=      5-min Rain = 0
KTA1 141551Z 19012KT 34/14 A3003 RMK A01 T03360136  RH  030%=      5-min Rain = 0
KTA1 141552Z 19015KT 34/14 A3002 RMK A01 T03360137  RH  030%=      5-min Rain = 0
KTA1 141553Z 20013KT 34/14 A3002 RMK A01 T03370137  RH  030%=      5-min Rain = 0
KTA1 141554Z 20012KT 34/14 A3002 RMK A01 T03370137  RH  030%=      5-min Rain = 0
KTA1 141555Z 21012KT 34/14 A3002 RMK A01 T03380138  RH  030%=      5-min Rain = 0
KTA1 141556Z 19012KT 34/14 A3002 RMK A01 T03390137  RH  030%=      5-min Rain = 0
KTA1 141557Z 19013KT 34/14 A3002 RMK A01 T03400137  RH  029%=      5-min Rain = 0
KTA1 141558Z 20010KT 34/14 A3002 RMK A01 T03400137  RH  029%=      5-min Rain = 0
KTA1 141559Z 19011KT 34/14 A3002 RMK A01 T03430137  RH  029%=      5-min Rain = 0
KTA1 141600Z 19013KT 34/14 A3002 RMK A01 T03440136  RH  029%=      5-min Rain = 0
KTA1 141601Z 20010KT 34/14 A3002 RMK A01 T03430137  RH  029%=      5-min Rain = 0
KTA1 141602Z 19014KT 34/14 A3002 RMK A01 T03420137  RH  029%=      5-min Rain = 0
KTA1 141603Z 18012KT 34/14 A3002 RMK A01 T03430136  RH  029%=      5-min Rain = 0
KTA1 141604Z 19008KT 34/14 A3002 RMK A01 T03440136  RH  029%=      5-min Rain = 0
KTA1 141605Z 21010G15KT 35/14 A3002 RMK A01 T03450137  RH  029%=      5-min Rain = 0
KTA1 141606Z 19013KT 35/14 A3002 RMK A01 T03460137  RH  028%=      5-min Rain = 0
KTA1 141607Z 19013KT 35/14 A3002 RMK A01 T03460136  RH  028%=      5-min Rain = 0
KTA1 141608Z 18013KT 35/14 A3002 RMK A01 T03450136  RH  028%=      5-min Rain = 0
KTA1 141609Z 19012KT 35/14 A3002 RMK A01 T03450135  RH  028%=      5-min Rain = 0
KTA1 141610Z 19011KT 35/14 A3002 RMK A01 T03470136  RH  028%=      5-min Rain = 0
KTA1 141611Z 19012KT 35/13 A3002 RMK A01 T03480134  RH  028%=      5-min Rain = 0
KTA1 141612Z 18012KT 35/13 A3002 RMK A01 T03490134  RH  027%=      5-min Rain = 0
KTA1 141613Z 18013KT 35/13 A3002 RMK A01 T03500133  RH  027%=      5-min Rain = 0
KTA1 141614Z 18014KT 35/13 A3002 RMK A01 T03500133  RH  027%=      5-min Rain = 0
KTA1 141615Z 20012KT 35/13 A3002 RMK A01 T03490134  RH  027%=      5-min Rain = 0
KTA1 141616Z 19009G14KT 35/14 A3002 RMK A01 T03510136  RH  027%=      5-min Rain = 0
KTA1 141617Z 19012KT 35/14 A3002 RMK A01 T03540135  RH  027%=      5-min Rain = 0
KTA1 141618Z 20014G19KT 36/13 A3002 RMK A01 T03550133  RH  026%=      5-min Rain = 0
KTA1 141619Z 19012KT 35/13 A3002 RMK A01 T03540132  RH  026%=      5-min Rain = 0
KTA1 141620Z 20011KT 35/13 A3002 RMK A01 T03530132  RH  027%=      5-min Rain = 0
KTA1 141621Z 20009KT 35/13 A3002 RMK A01 T03530132  RH  026%=      5-min Rain = 0
KTA1 141622Z 20013G18KT 35/13 A3002 RMK A01 T03540133  RH  026%=      5-min Rain = 0
KTA1 141623Z 19014KT 36/13 A3002 RMK A01 T03560128  RH  025%=      5-min Rain = 0
KTA1 141624Z 19012KT 35/13 A3002 RMK A01 T03540127  RH  026%=      5-min Rain = 0
KTA1 141625Z 19012KT 35/13 A3002 RMK A01 T03540128  RH  026%=      5-min Rain = 0
KTA1 141626Z 19014KT 36/13 A3002 RMK A01 T03560129  RH  026%=      5-min Rain = 0
KTA1 141627Z 19009KT 36/13 A3002 RMK A01 T03560128  RH  025%=      5-min Rain = 0
KTA1 141628Z 19012KT 36/13 A3002 RMK A01 T03550129  RH  026%=      5-min Rain = 0
KTA1 141629Z 20012KT 36/13 A3002 RMK A01 T03560130  RH  026%=      5-min Rain = 0
KTA1 141630Z 22010KT 36/13 A3002 RMK A01 T03580127  RH  025%=      5-min Rain = 0
KTA1 141631Z 21010KT 36/13 A3002 RMK A01 T03590127  RH  025%=      5-min Rain = 0
KTA1 141632Z 22011KT 36/13 A3002 RMK A01 T03610129  RH  025%=      5-min Rain = 0
KTA1 141633Z 21010KT 36/13 A3002 RMK A01 T03610127  RH  025%=      5-min Rain = 0
KTA1 141634Z 21010KT 36/13 A3002 RMK A01 T03600126  RH  024%=      5-min Rain = 0
KTA1 141635Z 20010KT 36/12 A3002 RMK A01 T03640124  RH  024%=      5-min Rain = 0
KTA1 141636Z 20011KT 37/12 A3002 RMK A01 T03660122  RH  023%=      5-min Rain = 0
KTA1 141637Z 20012KT 37/12 A3002 RMK A01 T03670121  RH  023%=      5-min Rain = 0
KTA1 141638Z 20010KT 37/12 A3002 RMK A01 T03660121  RH  023%=      5-min Rain = 0
KTA1 141639Z 21009KT 37/12 A3002 RMK A01 T03660124  RH  023%=      5-min Rain = 0
KTA1 141640Z 21010KT 37/12 A3002 RMK A01 T03680124  RH  023%=      5-min Rain = 0
KTA1 141641Z 21012KT 37/12 A3002 RMK A01 T03690123  RH  023%=      5-min Rain = 0
KTA1 141642Z 21011KT 37/12 A3002 RMK A01 T03680123  RH  023%=      5-min Rain = 0
KTA1 141643Z 21014KT 37/13 A3002 RMK A01 T03670125  RH  023%=      5-min Rain = 0
KTA1 141644Z 20011KT 37/13 A3002 RMK A01 T03670128  RH  024%=      5-min Rain = 0
KTA1 141645Z 19012KT 37/13 A3002 RMK A01 T03670129  RH  024%=      5-min Rain = 0
KTA1 141646Z 18012G17KT 37/13 A3002 RMK A01 T03660128  RH  024%=      5-min Rain = 0
KTA1 141647Z 18009KT 37/13 A3002 RMK A01 T03650127  RH  024%=      5-min Rain = 0
KTA1 141648Z 20010KT 37/13 A3002 RMK A01 T03660126  RH  024%=      5-min Rain = 0
KTA1 141649Z 21009KT 37/12 A3002 RMK A01 T03680123  RH  023%=      5-min Rain = 0
KTA1 141650Z 20008KT 37/13 A3002 RMK A01 T03700125  RH  023%=      5-min Rain = 0
KTA1 141651Z 20013KT 37/12 A3002 RMK A01 T03710124  RH  023%=      5-min Rain = 0
KTA1 141652Z 19012KT 37/13 A3002 RMK A01 T03710126  RH  023%=      5-min Rain = 0
KTA1 141653Z 19011KT 37/13 A3002 RMK A01 T03700126  RH  023%=      5-min Rain = 0
KTA1 141654Z 20009KT 37/13 A3002 RMK A01 T03680125  RH  023%=      5-min Rain = 0
KTA1 141655Z 19011KT 37/12 A3002 RMK A01 T03670124  RH  023%=      5-min Rain = 0
KTA1 141656Z 20012KT 37/12 A3002 RMK A01 T03670123  RH  023%=      5-min Rain = 0
KTA1 141657Z 19012KT 37/13 A3002 RMK A01 T03710126  RH  023%=      5-min Rain = 0
KTA1 141658Z 19012KT 37/13 A3002 RMK A01 T03730126  RH  023%=      5-min Rain = 0
KTA1 141659Z 19014KT 37/13 A3002 RMK A01 T03730125  RH  023%=      5-min Rain = 0
KTA1 141700Z 20011KT 37/12 A3002 RMK A01 T03710122  RH  023%=      5-min Rain = 0
KTA1 141701Z 21009KT 37/12 A3002 RMK A01 T03700122  RH  023%=      5-min Rain = 0
KTA1 141702Z 20011KT 37/12 A3002 RMK A01 T03730123  RH  022%=      5-min Rain = 0
KTA1 141703Z 21010KT 38/12 A3002 RMK A01 T03750123  RH  022%=      5-min Rain = 0
KTA1 141704Z 21011KT 37/12 A3002 RMK A01 T03740123  RH  022%=      5-min Rain = 0
KTA1 141705Z 21011KT 37/12 A3002 RMK A01 T03730123  RH  022%=      5-min Rain = 0
KTA1 141706Z 20012KT 37/12 A3002 RMK A01 T03740123  RH  022%=      5-min Rain = 0
KTA1 141707Z 21010KT 37/12 A3002 RMK A01 T03740123  RH  022%=      5-min Rain = 0
KTA1 141708Z 21012KT 38/12 A3002 RMK A01 T03750123  RH  022%=      5-min Rain = 0
KTA1 141709Z 20013KT 38/12 A3002 RMK A01 T03790119  RH  021%=      5-min Rain = 0
KTA1 141710Z 19008KT 38/12 A3002 RMK A01 T03770116  RH  021%=      5-min Rain = 0
KTA1 141711Z 17007KT 38/12 A3002 RMK A01 T03750117  RH  021%=      5-min Rain = 0
KTA1 141712Z 17009KT 38/12 A3002 RMK A01 T03780115  RH  021%=      5-min Rain = 0
KTA1 141713Z 18011G16KT 38/12 A3002 RMK A01 T03800115  RH  020%=      5-min Rain = 0
KTA1 141714Z 19012KT 38/12 A3002 RMK A01 T03820117  RH  021%=      5-min Rain = 0
KTA1 141715Z 19009KT 38/12 A3002 RMK A01 T03810116  RH  021%=      5-min Rain = 0
KTA1 141716Z 19006KT 38/12 A3002 RMK A01 T03780118  RH  021%=      5-min Rain = 0
KTA1 141717Z 18003KT 38/12 A3002 RMK A01 T03840120  RH  021%=      5-min Rain = 0
KTA1 141718Z 20010G15KT 39/12 A3001 RMK A01 T03870119  RH  020%=      5-min Rain = 0
KTA1 141719Z 22008KT 39/11 A3001 RMK A01 T03880113  RH  019%=      5-min Rain = 0
KTA1 141720Z 20006KT 39/11 A3001 RMK A01 T03900110  RH  019%=      5-min Rain = 0
KTA1 141721Z 21005KT 39/11 A3001 RMK A01 T03890108  RH  019%=      5-min Rain = 0
KTA1 141722Z 20008KT 39/11 A3001 RMK A01 T03860110  RH  019%=      5-min Rain = 0
KTA1 141723Z 19009KT 39/11 A3001 RMK A01 T03870113  RH  019%=      5-min Rain = 0
KTA1 141724Z 20005KT 39/11 A3001 RMK A01 T03890110  RH  019%=      5-min Rain = 0
KTA1 141725Z 17008KT 39/11 A3001 RMK A01 T03880112  RH  019%=      5-min Rain = 0
KTA1 141726Z 18010KT 39/11 A3001 RMK A01 T03890113  RH  019%=      5-min Rain = 0
KTA1 141727Z 19010KT 39/11 A3001 RMK A01 T03880109  RH  019%=      5-min Rain = 0
KTA1 141728Z 20008KT 39/11 A3001 RMK A01 T03850111  RH  019%=      5-min Rain = 0
KTA1 141729Z 21010KT 38/11 A3001 RMK A01 T03840112  RH  020%=      5-min Rain = 0
KTA1 141730Z 23009KT 39/11 A3001 RMK A01 T03870113  RH  019%=      5-min Rain = 0
KTA1 141731Z 20014KT 39/11 A3001 RMK A01 T03890113  RH  019%=      5-min Rain = 0
KTA1 141732Z 21011KT 39/11 A3001 RMK A01 T03880112  RH  019%=      5-min Rain = 0
KTA1 141733Z 20008KT 39/11 A3001 RMK A01 T03850111  RH  019%=      5-min Rain = 0
KTA1 141734Z 20006KT 38/11 A3001 RMK A01 T03840111  RH  019%=      5-min Rain = 0
KTA1 141735Z 22010KT 38/11 A3001 RMK A01 T03820111  RH  020%=      5-min Rain = 0
KTA1 141736Z 22012KT 38/11 A3001 RMK A01 T03840110  RH  019%=      5-min Rain = 0
KTA1 141737Z 22010KT 38/11 A3001 RMK A01 T03840108  RH  019%=      5-min Rain = 0
KTA1 141738Z 22010KT 38/11 A3001 RMK A01 T03830107  RH  019%=      5-min Rain = 0
KTA1 141739Z 24009KT 38/11 A3001 RMK A01 T03810106  RH  019%=      5-min Rain = 0
KTA1 141740Z 24005KT 38/11 A3001 RMK A01 T03800107  RH  019%=      5-min Rain = 0
KTA1 141741Z 20008KT 38/11 A3001 RMK A01 T03810107  RH  019%=      5-min Rain = 0
KTA1 141742Z 23009KT 38/11 A3001 RMK A01 T03840107  RH  019%=      5-min Rain = 0
KTA1 141743Z 23010KT 39/11 A3001 RMK A01 T03850106  RH  019%=      5-min Rain = 0
KTA1 141744Z 23009KT 38/11 A3001 RMK A01 T03840106  RH  019%=      5-min Rain = 0
KTA1 141745Z 23008KT 38/11 A3001 RMK A01 T03840108  RH  019%=      5-min Rain = 0
KTA1 141746Z 23006KT 39/11 A3001 RMK A01 T03860109  RH  019%=      5-min Rain = 0
KTA1 141747Z 21005KT 39/11 A3001 RMK A01 T03860107  RH  019%=      5-min Rain = 0
KTA1 141748Z 21006KT 39/11 A3001 RMK A01 T03860109  RH  019%=      5-min Rain = 0
KTA1 141749Z 21009KT 39/11 A3001 RMK A01 T03860108  RH  019%=      5-min Rain = 0
KTA1 141750Z 20011KT 39/11 A3001 RMK A01 T03850107  RH  019%=      5-min Rain = 0
KTA1 141751Z 20011KT 39/11 A3001 RMK A01 T03850108  RH  019%=      5-min Rain = 0
KTA1 141752Z 18008KT 38/11 A3001 RMK A01 T03830108  RH  019%=      5-min Rain = 0
KTA1 141753Z 20006KT 38/11 A3001 RMK A01 T03820109  RH  019%=      5-min Rain = 0
KTA1 141754Z 21008KT 38/11 A3001 RMK A01 T03840110  RH  019%=      5-min Rain = 0
KTA1 141755Z 22010KT 39/11 A3001 RMK A01 T03860107  RH  019%=      5-min Rain = 0
KTA1 141756Z 22009KT 38/11 A3001 RMK A01 T03830106  RH  019%=      5-min Rain = 0
KTA1 141757Z 20006KT 38/11 A3001 RMK A01 T03800106  RH  019%=      5-min Rain = 0
KTA1 141758Z 22008KT 38/11 A3001 RMK A01 T03800107  RH  019%=      5-min Rain = 0
KTA1 141759Z 23009KT 38/11 A3001 RMK A01 T03810106  RH  019%=      5-min Rain = 0
KTA1 141800Z 23010KT 38/11 A3001 RMK A01 T03800105  RH  019%=      5-min Rain = 0
KTA1 141801Z 23008KT 38/11 A3001 RMK A01 T03800105  RH  019%=      5-min Rain = 0
KTA1 141802Z 22008KT 38/10 A3001 RMK A01 T03790104  RH  019%=      5-min Rain = 0
KTA1 141803Z 23007KT 38/10 A3001 RMK A01 T03790104  RH  019%=      5-min Rain = 0
KTA1 141804Z 22010KT 38/10 A3001 RMK A01 T03800104  RH  019%=      5-min Rain = 0
KTA1 141805Z 22008KT 38/10 A3001 RMK A01 T03800103  RH  019%=      5-min Rain = 0
KTA1 141806Z 21005KT 38/10 A3001 RMK A01 T03790104  RH  019%=      5-min Rain = 0
KTA1 141807Z 23005KT 38/11 A3001 RMK A01 T03800106  RH  019%=      5-min Rain = 0
KTA1 141808Z 22008KT 38/11 A3001 RMK A01 T03830105  RH  019%=      5-min Rain = 0
KTA1 141809Z 21007KT 39/10 A3001 RMK A01 T03850104  RH  019%=      5-min Rain = 0
KTA1 141810Z 22003KT 39/10 A3001 RMK A01 T03860103  RH  018%=      5-min Rain = 0
KTA1 141811Z 22005KT 39/10 A3001 RMK A01 T03850103  RH  018%=      5-min Rain = 0
KTA1 141812Z 23007KT 39/11 A3001 RMK A01 T03850105  RH  019%=      5-min Rain = 0
KTA1 141813Z 25006KT 39/11 A3001 RMK A01 T03860105  RH  019%=      5-min Rain = 0
KTA1 141814Z 26008KT 39/11 A3001 RMK A01 T03860105  RH  019%=      5-min Rain = 0
KTA1 141815Z 23008KT 39/11 A3001 RMK A01 T03860105  RH  018%=      5-min Rain = 0
KTA1 141816Z 22006KT 39/10 A3001 RMK A01 T03860103  RH  018%=      5-min Rain = 0
KTA1 141817Z 23004KT 38/10 A3001 RMK A01 T03820102  RH  019%=      5-min Rain = 0
KTA1 141818Z 23005KT 38/10 A3001 RMK A01 T03800101  RH  019%=      5-min Rain = 0
KTA1 141819Z 23005KT 38/10 A3001 RMK A01 T03790101  RH  019%=      5-min Rain = 0
KTA1 141820Z 23006KT 38/10 A3001 RMK A01 T03780101  RH  019%=      5-min Rain = 0
KTA1 141821Z 20006KT 38/10 A3001 RMK A01 T03780101  RH  019%=      5-min Rain = 0
KTA1 141822Z 21007KT 38/10 A3001 RMK A01 T03790102  RH  019%=      5-min Rain = 0
KTA1 141823Z 22008KT 38/10 A3001 RMK A01 T03810102  RH  019%=      5-min Rain = 0
KTA1 141824Z 21011KT 38/10 A3001 RMK A01 T03820101  RH  018%=      5-min Rain = 0
KTA1 141825Z 20007KT 38/10 A3001 RMK A01 T03810101  RH  019%=      5-min Rain = 0
KTA1 141826Z 20009KT 38/10 A3001 RMK A01 T03830102  RH  019%=      5-min Rain = 0
KTA1 141827Z 20007KT 38/10 A3001 RMK A01 T03830101  RH  018%=      5-min Rain = 0
KTA1 141828Z 20006KT 38/10 A30 RMK A01 T03820101  RH  018%=      5-min Rain = 0
KTA1 141829Z 21005KT 38/10 A30 RMK A01 T03810101  RH  019%=      5-min Rain = 0
KTA1 141830Z 21005KT 38/10 A30 RMK A01 T03800102  RH  019%=      5-min Rain = 0
KTA1 141831Z 21007KT 38/10 A30 RMK A01 T03800101  RH  019%=      5-min Rain = 0
KTA1 141832Z 22006KT 38/10 A30 RMK A01 T03810101  RH  019%=      5-min Rain = 0
KTA1 141833Z 23009KT 38/10 A30 RMK A01 T03820102  RH  019%=      5-min Rain = 0
KTA1 141834Z 24007KT 38/10 A30 RMK A01 T03810101  RH  019%=      5-min Rain = 0
KTA1 141835Z 22007KT 38/10 A30 RMK A01 T03810102  RH  019%=      5-min Rain = 0
KTA1 141836Z 23007KT 38/10 A30 RMK A01 T03810103  RH  019%=      5-min Rain = 0
KTA1 141837Z 23006KT 38/10 A30 RMK A01 T03810102  RH  019%=      5-min Rain = 0
KTA1 141838Z 23007KT 38/10 A30 RMK A01 T03800102  RH  019%=      5-min Rain = 0
KTA1 141839Z 21004KT 38/10 A30 RMK A01 T03780100  RH  019%=      5-min Rain = 0
KTA1 141840Z 21006KT 38/10 A30 RMK A01 T03780102  RH  019%=      5-min Rain = 0
KTA1 141841Z 21009KT 38/10 A30 RMK A01 T03790102  RH  019%=      5-min Rain = 0
KTA1 141842Z 22008KT 38/10 A30 RMK A01 T03800102  RH  019%=      5-min Rain = 0
KTA1 141843Z 23006KT 38/10 A30 RMK A01 T03810101  RH  019%=      5-min Rain = 0
KTA1 141844Z 21008KT 38/10 A30 RMK A01 T03810101  RH  018%=      5-min Rain = 0
KTA1 141845Z 20009KT 38/10 A30 RMK A01 T03820100  RH  018%=      5-min Rain = 0
KTA1 141846Z 21007KT 38/10 A30 RMK A01 T03820099  RH  018%=      5-min Rain = 0
KTA1 141847Z 21008KT 38/10 A30 RMK A01 T03810099  RH  018%=      5-min Rain = 0
KTA1 141848Z 21005KT 38/10 A30 RMK A01 T03810099  RH  018%=      5-min Rain = 0
KTA1 141849Z 21006KT 38/10 A30 RMK A01 T03820098  RH  018%=      5-min Rain = 0
KTA1 141850Z 21005KT 38/10 A30 RMK A01 T03820098  RH  018%=      5-min Rain = 0
KTA1 141851Z 22006KT 38/10 A30 RMK A01 T03830099  RH  018%=      5-min Rain = 0
KTA1 141852Z 20006KT 38/10 A30 RMK A01 T03840099  RH  018%=      5-min Rain = 0
KTA1 141853Z 20007KT 38/10 A30 RMK A01 T03840099  RH  018%=      5-min Rain = 0
KTA1 141854Z 20007KT 38/10 A30 RMK A01 T03840101  RH  018%=      5-min Rain = 0
KTA1 141855Z 20008KT 39/10 A30 RMK A01 T03850101  RH  018%=      5-min Rain = 0
KTA1 141856Z 19005KT 39/10 A30 RMK A01 T03850101  RH  018%=      5-min Rain = 0
KTA1 141857Z 18006KT 39/10 A30 RMK A01 T03850101  RH  018%=      5-min Rain = 0
KTA1 141858Z 20005KT 39/10 A30 RMK A01 T03860100  RH  018%=      5-min Rain = 0
KTA1 141859Z 21005KT 39/10 A30 RMK A01 T03870101  RH  018%=      5-min Rain = 0
KTA1 141900Z 21006KT 39/10 A30 RMK A01 T03890100  RH  018%=      5-min Rain = 0
KTA1 141901Z 20005KT 39/10 A2999 RMK A01 T03880099  RH  018%=      5-min Rain = 0
KTA1 141902Z 20007KT 39/10 A2999 RMK A01 T03870098  RH  018%=      5-min Rain = 0
KTA1 141903Z 18007KT 39/10 A2999 RMK A01 T03870099  RH  018%=      5-min Rain = 0
KTA1 141904Z 17006KT 39/10 A2999 RMK A01 T03880098  RH  018%=      5-min Rain = 0
KTA1 141905Z 17005KT 39/10 A2999 RMK A01 T03890099  RH  017%=      5-min Rain = 0
KTA1 141906Z 21005KT 39/10 A2999 RMK A01 T03910099  RH  017%=      5-min Rain = 0
KTA1 141907Z 22006KT 39/10 A2999 RMK A01 T03930098  RH  017%=      5-min Rain = 0
KTA1 141908Z 21004KT 39/10 A2999 RMK A01 T03920099  RH  017%=      5-min Rain = 0
KTA1 141909Z 26004KT 39/10 A2999 RMK A01 T03920096  RH  017%=      5-min Rain = 0
KTA1 141910Z 24005KT 39/09 A2999 RMK A01 T03910094  RH  017%=      5-min Rain = 0
KTA1 141911Z 25006KT 39/09 A2999 RMK A01 T03900093  RH  017%=      5-min Rain = 0
KTA1 141912Z 24004KT 39/09 A2999 RMK A01 T03890092  RH  017%=      5-min Rain = 0
KTA1 141913Z 22002KT 39/09 A2999 RMK A01 T03880093  RH  017%=      5-min Rain = 0
KTA1 141914Z 25002KT 39/10 A2999 RMK A01 T03930096  RH  017%=      5-min Rain = 0
KTA1 141915Z 23003KT 40/10 A2999 RMK A01 T03990097  RH  016%=      5-min Rain = 0
KTA1 141916Z 20002KT 40/10 A2999 RMK A01 T04010095  RH  016%=      5-min Rain = 0
KTA1 141917Z 12001KT 40/10 A2999 RMK A01 T04010095  RH  016%=      5-min Rain = 0
KTA1 141918Z 12002KT 40/10 A2999 RMK A01 T04040095  RH  016%=      5-min Rain = 0
KTA1 141919Z 16002KT 41/10 A2999 RMK A01 T04060097  RH  016%=      5-min Rain = 0
KTA1 141920Z 31001KT 41/10 A2999 RMK A01 T04080095  RH  015%=      5-min Rain = 0
KTA1 141921Z 30003KT 41/10 A2999 RMK A01 T04090096  RH  015%=      5-min Rain = 0
KTA1 141922Z 26001KT 41/09 A2999 RMK A01 T04060092  RH  015%=      5-min Rain = 0
KTA1 141923Z 25002KT 40/09 A2998 RMK A01 T04010091  RH  016%=      5-min Rain = 0
KTA1 141924Z 25001KT 40/09 A2998 RMK A01 T03990093  RH  016%=      5-min Rain = 0
KTA1 141925Z 30001KT 40/10 A2998 RMK A01 T04000095  RH  016%=      5-min Rain = 0
KTA1 141926Z 27003KT 40/10 A2998 RMK A01 T04020095  RH  016%=      5-min Rain = 0
KTA1 141927Z 20002KT 40/10 A2998 RMK A01 T04020095  RH  016%=      5-min Rain = 0
KTA1 141928Z 17000KT 40/10 A2998 RMK A01 T04020096  RH  016%=      5-min Rain = 0
KTA1 141929Z 10000KT 40/10 A2998 RMK A01 T04010095  RH  016%=      5-min Rain = 0
KTA1 141930Z 34001KT 40/10 A2998 RMK A01 T04020096  RH  016%=      5-min Rain = 0
KTA1 141931Z 34002KT 40/10 A2998 RMK A01 T04040097  RH  016%=      5-min Rain = 0
KTA1 141932Z 01002KT 41/10 A2998 RMK A01 T04070097  RH  016%=      5-min Rain = 0
KTA1 141933Z 01001KT 41/10 A2998 RMK A01 T04070097  RH  016%=      5-min Rain = 0
KTA1 141934Z 23000KT 41/10 A2998 RMK A01 T04090098  RH  016%=      5-min Rain = 0
KTA1 141935Z 21001KT 41/10 A2998 RMK A01 T04110098  RH  015%=      5-min Rain = 0
KTA1 141936Z 19004KT 41/10 A2997 RMK A01 T04130098  RH  015%=      5-min Rain = 0
KTA1 141937Z 22005KT 41/10 A2997 RMK A01 T04130098  RH  015%=      5-min Rain = 0
KTA1 141938Z 33003KT 41/10 A2998 RMK A01 T04110097  RH  015%=      5-min Rain = 0
KTA1 141939Z 34002KT 41/10 A2998 RMK A01 T04100098  RH  016%=      5-min Rain = 0
KTA1 141940Z 35001KT 41/10 A2998 RMK A01 T04110097  RH  015%=      5-min Rain = 0
KTA1 141941Z 04002KT 41/10 A2997 RMK A01 T04090099  RH  016%=      5-min Rain = 0
KTA1 141942Z 28006KT 41/10 A2997 RMK A01 T04080098  RH  016%=      5-min Rain = 0
KTA1 141943Z 31005KT 41/10 A2997 RMK A01 T04080097  RH  016%=      5-min Rain = 0
KTA1 141944Z 27004KT 41/10 A2997 RMK A01 T04100096  RH  015%=      5-min Rain = 0
KTA1 141945Z 28003KT 41/10 A2997 RMK A01 T04090095  RH  015%=      5-min Rain = 0
KTA1 141946Z 32006KT 41/10 A2997 RMK A01 T04080096  RH  015%=      5-min Rain = 0
KTA1 141947Z 34006KT 41/10 A2997 RMK A01 T04080097  RH  016%=      5-min Rain = 0
KTA1 141948Z 32005KT 41/10 A2997 RMK A01 T04080097  RH  016%=      5-min Rain = 0
KTA1 141949Z 30003KT 41/10 A2997 RMK A01 T04070097  RH  016%=      5-min Rain = 0
KTA1 141950Z 24001KT 41/10 A2997 RMK A01 T04060096  RH  016%=      5-min Rain = 0
KTA1 141951Z 21001KT 41/10 A2997 RMK A01 T04070098  RH  016%=      5-min Rain = 0
KTA1 141952Z 20000KT 41/10 A2997 RMK A01 T04120100  RH  016%=      5-min Rain = 0
KTA1 141953Z 32001KT 42/10 A2997 RMK A01 T04160100  RH  015%=      5-min Rain = 0
KTA1 141954Z 34006KT 42/10 A2997 RMK A01 T04150098  RH  015%=      5-min Rain = 0
KTA1 141955Z 32005KT 41/10 A2997 RMK A01 T04130098  RH  015%=      5-min Rain = 0
KTA1 141956Z 28005KT 41/10 A2997 RMK A01 T04110097  RH  015%=      5-min Rain = 0
KTA1 141957Z 27002KT 41/10 A2997 RMK A01 T04080097  RH  016%=      5-min Rain = 0
KTA1 141958Z 24002KT 41/09 A2997 RMK A01 T04080093  RH  015%=      5-min Rain = 0
KTA1 141959Z 27004KT 41/09 A2997 RMK A01 T04090093  RH  015%=      5-min Rain = 0
KTA1 142000Z 25006KT 41/10 A2997 RMK A01 T04130095  RH  015%=      5-min Rain = 0
KTA1 142001Z 26009KT 42/09 A2997 RMK A01 T04160093  RH  015%=      5-min Rain = 0
KTA1 142002Z 24010KT 41/09 A2997 RMK A01 T04140092  RH  015%=      5-min Rain = 0
KTA1 142003Z 22007KT 41/09 A2997 RMK A01 T04110089  RH  015%=      5-min Rain = 0
KTA1 142004Z 25008KT 41/09 A2996 RMK A01 T04090090  RH  015%=      5-min Rain = 0
KTA1 142005Z 25007KT 41/09 A2996 RMK A01 T04090090  RH  015%=      5-min Rain = 0
KTA1 142006Z 24007KT 41/09 A2996 RMK A01 T04090087  RH  015%=      5-min Rain = 0
KTA1 142007Z 24006KT 41/09 A2996 RMK A01 T04090085  RH  014%=      5-min Rain = 0
KTA1 142008Z 21007KT 41/09 A2996 RMK A01 T04100089  RH  015%=      5-min Rain = 0
KTA1 142009Z 21007KT 42/09 A2996 RMK A01 T04150089  RH  014%=      5-min Rain = 0
KTA1 142010Z 20005KT 42/09 A2996 RMK A01 T04160089  RH  014%=      5-min Rain = 0
KTA1 142011Z 22003KT 42/09 A2996 RMK A01 T04150086  RH  014%=      5-min Rain = 0
KTA1 142012Z 19007KT 41/09 A2996 RMK A01 T04130087  RH  014%=      5-min Rain = 0
KTA1 142013Z 15007KT 41/09 A2996 RMK A01 T04120088  RH  014%=      5-min Rain = 0
KTA1 142014Z 16006KT 41/09 A2996 RMK A01 T04110088  RH  014%=      5-min Rain = 0
KTA1 142015Z 14005KT 41/09 A2996 RMK A01 T04080088  RH  015%=      5-min Rain = 0
KTA1 142016Z 15005KT 41/09 A2996 RMK A01 T04060088  RH  015%=      5-min Rain = 0
KTA1 142017Z 18006KT 41/09 A2996 RMK A01 T04060088  RH  015%=      5-min Rain = 0
KTA1 142018Z 17004KT 41/09 A2996 RMK A01 T04090090  RH  015%=      5-min Rain = 0
KTA1 142019Z 10004KT 41/09 A2996 RMK A01 T04100088  RH  015%=      5-min Rain = 0
KTA1 142020Z 09005KT 41/09 A2996 RMK A01 T04090088  RH  015%=      5-min Rain = 0
KTA1 142021Z 09005KT 41/09 A2996 RMK A01 T04080088  RH  015%=      5-min Rain = 0
KTA1 142022Z 10004KT 41/09 A2996 RMK A01 T04060089  RH  015%=      5-min Rain = 0
KTA1 142023Z 13002KT 41/09 A2996 RMK A01 T04050089  RH  015%=      5-min Rain = 0
KTA1 142024Z 24001KT 41/09 A2996 RMK A01 T04050089  RH  015%=      5-min Rain = 0
KTA1 142025Z 24005G10KT 41/09 A2996 RMK A01 T04050090  RH  015%=      5-min Rain = 0
KTA1 142026Z 23006KT 41/09 A2995 RMK A01 T04060092  RH  015%=      5-min Rain = 0
KTA1 142027Z 28003KT 41/09 A2995 RMK A01 T04060092  RH  015%=      5-min Rain = 0
KTA1 142028Z 28002KT 41/09 A2995 RMK A01 T04060092  RH  015%=      5-min Rain = 0
KTA1 142029Z 31005KT 41/09 A2995 RMK A01 T04060093  RH  015%=      5-min Rain = 0
KTA1 142030Z 23008G14KT 41/09 A2995 RMK A01 T04060094  RH  015%=      5-min Rain = 0
KTA1 142031Z 23010KT 41/09 A2995 RMK A01 T04060093  RH  015%=      5-min Rain = 0
KTA1 142032Z 23008KT 41/09 A2995 RMK A01 T04050094  RH  016%=      5-min Rain = 0
KTA1 142033Z 25011KT 40/09 A2995 RMK A01 T04040094  RH  016%=      5-min Rain = 0
KTA1 142034Z 26009KT 40/09 A2995 RMK A01 T04010093  RH  016%=      5-min Rain = 0
KTA1 142035Z 25005KT 40/09 A2995 RMK A01 T04000093  RH  016%=      5-min Rain = 0
KTA1 142036Z 26006G11KT 40/09 A2995 RMK A01 T03970093  RH  016%=      5-min Rain = 0
KTA1 142037Z 31008KT 40/10 A2995 RMK A01 T03970095  RH  016%=      5-min Rain = 0
KTA1 142038Z 30007KT 40/10 A2995 RMK A01 T03980098  RH  017%=      5-min Rain = 0
KTA1 142039Z 28007KT 40/10 A2995 RMK A01 T04000100  RH  017%=      5-min Rain = 0
KTA1 142040Z 28008KT 40/10 A2995 RMK A01 T04000099  RH  017%=      5-min Rain = 0
KTA1 142041Z 29010KT 40/10 A2995 RMK A01 T03980098  RH  017%=      5-min Rain = 0
KTA1 142042Z 28011KT 40/10 A2995 RMK A01 T03980097  RH  016%=      5-min Rain = 0
KTA1 142043Z 28009KT 40/10 A2995 RMK A01 T04000097  RH  016%=      5-min Rain = 0
KTA1 142044Z 26010KT 40/10 A2995 RMK A01 T04010096  RH  016%=      5-min Rain = 0
KTA1 142045Z 27008KT 40/10 A2995 RMK A01 T04000095  RH  016%=      5-min Rain = 0
KTA1 142046Z 26009KT 40/10 A2995 RMK A01 T04000095  RH  016%=      5-min Rain = 0
KTA1 142047Z 26008KT 40/10 A2994 RMK A01 T04000097  RH  016%=      5-min Rain = 0
KTA1 142048Z 26007KT 40/10 A2994 RMK A01 T04010097  RH  016%=      5-min Rain = 0
KTA1 142049Z 27009KT 40/10 A2995 RMK A01 T04030098  RH  016%=      5-min Rain = 0
KTA1 142050Z 28009KT 40/10 A2995 RMK A01 T04040096  RH  016%=      5-min Rain = 0
KTA1 142051Z 27007KT 40/10 A2994 RMK A01 T04040095  RH  016%=      5-min Rain = 0
KTA1 142052Z 26010G15KT 40/10 A2994 RMK A01 T04030095  RH  016%=      5-min Rain = 0
KTA1 142053Z 26010KT 40/09 A2994 RMK A01 T04020094  RH  016%=      5-min Rain = 0
KTA1 142054Z 27010KT 40/09 A2994 RMK A01 T04010094  RH  016%=      5-min Rain = 0
KTA1 142055Z 28010KT 40/09 A2994 RMK A01 T04010093  RH  016%=      5-min Rain = 0
KTA1 142056Z 26010KT 41/09 A2994 RMK A01 T04050092  RH  015%=      5-min Rain = 0
KTA1 142057Z 27007KT 41/09 A2994 RMK A01 T04050090  RH  015%=      5-min Rain = 0
KTA1 142058Z 26008KT 41/09 A2994 RMK A01 T04060090  RH  015%=      5-min Rain = 0
KTA1 142059Z 29006KT 41/09 A2994 RMK A01 T04050091  RH  015%=      5-min Rain = 0
KTA1 142100Z 28007KT 41/09 A2994 RMK A01 T04050092  RH  015%=      5-min Rain = 0
KTA1 142101Z 28006KT 41/09 A2994 RMK A01 T04080093  RH  015%=      5-min Rain = 0
KTA1 142102Z 28006KT 41/09 A2994 RMK A01 T04080091  RH  015%=      5-min Rain = 0
KTA1 142103Z 29006KT 41/09 A2994 RMK A01 T04080092  RH  015%=      5-min Rain = 0
KTA1 142104Z 25007KT 41/09 A2994 RMK A01 T04100091  RH  015%=      5-min Rain = 0
KTA1 142105Z 24008KT 41/09 A2994 RMK A01 T04100087  RH  014%=      5-min Rain = 0
KTA1 142106Z 27006KT 41/09 A2994 RMK A01 T04090087  RH  015%=      5-min Rain = 0
KTA1 142107Z 29005KT 41/09 A2994 RMK A01 T04080086  RH  015%=      5-min Rain = 0
KTA1 142108Z 32006KT 41/09 A2994 RMK A01 T04070090  RH  015%=      5-min Rain = 0
KTA1 142109Z 35006KT 41/10 A2995 RMK A01 T04080101  RH  016%=      5-min Rain = 0
KTA1 142110Z 00010KT 41/11 A2995 RMK A01 T04080111  RH  017%=      5-min Rain = 0
KTA1 142111Z 01014KT 40/11 A2995 RMK A01 T04030113  RH  018%=      5-min Rain = 0
KTA1 142112Z 00017KT 39/11 A2994 RMK A01 T03930111  RH  019%=      5-min Rain = 0
KTA1 142113Z 35014KT 39/11 A2995 RMK A01 T03870109  RH  019%=      5-min Rain = 0
KTA1 142114Z 33010KT 38/11 A2995 RMK A01 T03840111  RH  020%=      5-min Rain = 0
KTA1 142115Z 31008KT 38/11 A2994 RMK A01 T03830111  RH  020%=      5-min Rain = 0
KTA1 142116Z 32005KT 38/11 A2994 RMK A01 T03830112  RH  020%=      5-min Rain = 0
KTA1 142117Z 31005KT 39/11 A2995 RMK A01 T03860110  RH  019%=      5-min Rain = 0
KTA1 142118Z 31005KT 39/11 A2994 RMK A01 T03870110  RH  019%=      5-min Rain = 0
KTA1 142119Z 35006G15KT 39/11 A2994 RMK A01 T03890110  RH  019%=      5-min Rain = 0
KTA1 142120Z 01013KT 39/11 A2994 RMK A01 T03910110  RH  019%=      5-min Rain = 0
KTA1 142121Z 01013KT 39/11 A2994 RMK A01 T03920106  RH  018%=      5-min Rain = 0
KTA1 142122Z 01015KT 39/11 A2994 RMK A01 T03920105  RH  018%=      5-min Rain = 0
KTA1 142123Z 02015KT 39/11 A2994 RMK A01 T03900109  RH  019%=      5-min Rain = 0
KTA1 142124Z 01015KT 39/12 A2994 RMK A01 T03870116  RH  020%=      5-min Rain = 0
KTA1 142125Z 02016KT 39/12 A2994 RMK A01 T03860116  RH  020%=      5-min Rain = 0
KTA1 142126Z 00016KT 39/11 A2994 RMK A01 T03860107  RH  019%=      5-min Rain = 0
KTA1 142127Z 36015KT 39/10 A2994 RMK A01 T03870101  RH  018%=      5-min Rain = 0
KTA1 142128Z 00015KT 39/10 A2994 RMK A01 T03890104  RH  018%=      5-min Rain = 0
KTA1 142129Z 00014KT 39/11 A2994 RMK A01 T03890111  RH  019%=      5-min Rain = 0
KTA1 142130Z 01013KT 39/11 A2994 RMK A01 T03890108  RH  019%=      5-min Rain = 0
KTA1 142131Z 01014KT 39/10 A2994 RMK A01 T03890104  RH  018%=      5-min Rain = 0
KTA1 142132Z 01012KT 39/11 A2994 RMK A01 T03860106  RH  019%=      5-min Rain = 0
KTA1 142133Z 01012KT 39/11 A2994 RMK A01 T03850108  RH  019%=      5-min Rain = 0
KTA1 142134Z 01010KT 38/10 A2994 RMK A01 T03840104  RH  019%=      5-min Rain = 0
KTA1 142135Z 01009KT 38/11 A2994 RMK A01 T03830105  RH  019%=      5-min Rain = 0
KTA1 142136Z 36011KT 38/11 A2994 RMK A01 T03830106  RH  019%=      5-min Rain = 0
KTA1 142137Z 35009KT 38/11 A2994 RMK A01 T03840107  RH  019%=      5-min Rain = 0
KTA1 142138Z 36008KT 39/11 A2994 RMK A01 T03850107  RH  019%=      5-min Rain = 0
KTA1 142139Z 00012KT 39/11 A2994 RMK A01 T03870109  RH  019%=      5-min Rain = 0
KTA1 142140Z 00012KT 39/11 A2994 RMK A01 T03870111  RH  019%=      5-min Rain = 0
KTA1 142141Z 36010KT 39/11 A2994 RMK A01 T03850111  RH  019%=      5-min Rain = 0
KTA1 142142Z 35012KT 39/11 A2994 RMK A01 T03850111  RH  019%=      5-min Rain = 0
KTA1 142143Z 00010KT 39/11 A2994 RMK A01 T03860110  RH  019%=      5-min Rain = 0
KTA1 142144Z 35013KT 39/11 A2994 RMK A01 T03880108  RH  019%=      5-min Rain = 0
KTA1 142145Z 36009G14KT 39/10 A2994 RMK A01 T03890104  RH  018%=      5-min Rain = 0
KTA1 142146Z 35010KT 39/10 A2994 RMK A01 T03910104  RH  018%=      5-min Rain = 0
KTA1 142147Z 35010KT 39/11 A2994 RMK A01 T03930105  RH  018%=      5-min Rain = 0
KTA1 142148Z 35009KT 40/11 A2994 RMK A01 T03950106  RH  018%=      5-min Rain = 0
KTA1 142149Z 36011KT 40/11 A2994 RMK A01 T03970106  RH  018%=      5-min Rain = 0
KTA1 142150Z 35011KT 40/11 A2994 RMK A01 T03980107  RH  018%=      5-min Rain = 0
KTA1 142151Z 36011KT 40/11 A2994 RMK A01 T03970105  RH  017%=      5-min Rain = 0
KTA1 142152Z 35012KT 40/11 A2994 RMK A01 T03960105  RH  018%=      5-min Rain = 0
KTA1 142153Z 34010KT 40/10 A2994 RMK A01 T03950104  RH  018%=      5-min Rain = 0
KTA1 142154Z 35012KT 39/10 A2993 RMK A01 T03940103  RH  018%=      5-min Rain = 0
KTA1 142155Z 35012KT 39/10 A2993 RMK A01 T03920103  RH  018%=      5-min Rain = 0
KTA1 142156Z 35011KT 39/10 A2993 RMK A01 T03910104  RH  018%=      5-min Rain = 0
KTA1 142157Z 34013KT 39/11 A2993 RMK A01 T03910106  RH  018%=      5-min Rain = 0
KTA1 142158Z 35013KT 39/11 A2993 RMK A01 T03910105  RH  018%=      5-min Rain = 0
KTA1 142159Z 35011KT 39/11 A2993 RMK A01 T03910105  RH  018%=      5-min Rain = 0
KTA1 142200Z 34011KT 39/10 A2993 RMK A01 T03910102  RH  018%=      5-min Rain = 0
KTA1 142201Z 34009KT 39/10 A2993 RMK A01 T03920100  RH  017%=      5-min Rain = 0
KTA1 142202Z 00011KT 40/10 A2993 RMK A01 T03950102  RH  017%=      5-min Rain = 0
KTA1 142203Z 36011KT 40/10 A2993 RMK A01 T03970102  RH  017%=      5-min Rain = 0
KTA1 142204Z 35012KT 40/10 A2993 RMK A01 T03990103  RH  017%=      5-min Rain = 0
KTA1 142205Z 34008KT 40/10 A2993 RMK A01 T03990101  RH  017%=      5-min Rain = 0
KTA1 142206Z 33008KT 40/10 A2993 RMK A01 T04010104  RH  017%=      5-min Rain = 0
KTA1 142207Z 35009KT 41/10 A2993 RMK A01 T04050104  RH  017%=      5-min Rain = 0
KTA1 142208Z 35010KT 41/10 A2993 RMK A01 T04070101  RH  016%=      5-min Rain = 0
KTA1 142209Z 36010KT 41/10 A2993 RMK A01 T04080102  RH  016%=      5-min Rain = 0
KTA1 142210Z 36008KT 41/10 A2993 RMK A01 T04080101  RH  016%=      5-min Rain = 0
KTA1 142211Z 00009KT 41/10 A2993 RMK A01 T04060102  RH  016%=      5-min Rain = 0
KTA1 142212Z 00010KT 41/10 A2993 RMK A01 T04060102  RH  016%=      5-min Rain = 0
KTA1 142213Z 00011KT 41/10 A2993 RMK A01 T04060101  RH  016%=      5-min Rain = 0
KTA1 142214Z 01008KT 40/10 A2993 RMK A01 T04030098  RH  016%=      5-min Rain = 0
KTA1 142215Z 01009KT 40/10 A2993 RMK A01 T04020098  RH  016%=      5-min Rain = 0
KTA1 142216Z 01009KT 40/10 A2992 RMK A01 T04010097  RH  016%=      5-min Rain = 0
KTA1 142217Z 34007KT 40/10 A2992 RMK A01 T04010097  RH  016%=      5-min Rain = 0
KTA1 142218Z 35006KT 40/10 A2992 RMK A01 T04030097  RH  016%=      5-min Rain = 0
KTA1 142219Z 35006KT 41/10 A2992 RMK A01 T04060102  RH  016%=      5-min Rain = 0
KTA1 142220Z 01008KT 41/10 A2992 RMK A01 T04110103  RH  016%=      5-min Rain = 0
KTA1 142221Z 01008KT 41/10 A2992 RMK A01 T04110102  RH  016%=      5-min Rain = 0
KTA1 142222Z 01010KT 41/10 A2992 RMK A01 T04100100  RH  016%=      5-min Rain = 0
KTA1 142223Z 31006KT 41/10 A2992 RMK A01 T04120103  RH  016%=      5-min Rain = 0
KTA1 142224Z 34006KT 41/10 A2992 RMK A01 T04140102  RH  016%=      5-min Rain = 0
KTA1 142225Z 35009KT 41/10 A2992 RMK A01 T04140100  RH  015%=      5-min Rain = 0
KTA1 142226Z 01009KT 41/10 A2992 RMK A01 T04110098  RH  015%=      5-min Rain = 0
KTA1 142227Z 34007KT 41/10 A2992 RMK A01 T04110101  RH  016%=      5-min Rain = 0
KTA1 142228Z 35006KT 42/10 A2992 RMK A01 T04150098  RH  015%=      5-min Rain = 0
KTA1 142229Z 00008KT 42/10 A2992 RMK A01 T04160097  RH  015%=      5-min Rain = 0
KTA1 142230Z 00010KT 41/10 A2992 RMK A01 T04140096  RH  015%=      5-min Rain = 0
KTA1 142231Z 35009KT 41/09 A2992 RMK A01 T04090094  RH  015%=      5-min Rain = 0
KTA1 142232Z 01008KT 41/10 A2991 RMK A01 T04080098  RH  016%=      5-min Rain = 0
KTA1 142233Z 36006KT 41/10 A2991 RMK A01 T04090100  RH  016%=      5-min Rain = 0
KTA1 142234Z 35007KT 41/10 A2991 RMK A01 T04100098  RH  016%=      5-min Rain = 0
KTA1 142235Z 01007KT 41/10 A2991 RMK A01 T04110099  RH  016%=      5-min Rain = 0
KTA1 142236Z 01010KT 41/10 A2991 RMK A01 T04110099  RH  016%=      5-min Rain = 0
KTA1 142237Z 36009KT 41/10 A2991 RMK A01 T04090097  RH  015%=      5-min Rain = 0
KTA1 142238Z 35008KT 41/10 A2991 RMK A01 T04080096  RH  016%=      5-min Rain = 0
KTA1 142239Z 35008KT 41/10 A2992 RMK A01 T04070096  RH  016%=      5-min Rain = 0
KTA1 142240Z 35008KT 41/09 A2991 RMK A01 T04060094  RH  016%=      5-min Rain = 0
KTA1 142241Z 34005KT 41/09 A2991 RMK A01 T04050094  RH  016%=      5-min Rain = 0
KTA1 142242Z 36007KT 40/10 A2991 RMK A01 T04040096  RH  016%=      5-min Rain = 0
KTA1 142243Z 02007KT 41/10 A2991 RMK A01 T04050095  RH  016%=      5-min Rain = 0
KTA1 142244Z 04006KT 40/10 A2991 RMK A01 T04030095  RH  016%=      5-min Rain = 0
KTA1 142245Z 03005KT 40/10 A2991 RMK A01 T04030095  RH  016%=      5-min Rain = 0
KTA1 142246Z 00005KT 41/09 A2991 RMK A01 T04050093  RH  015%=      5-min Rain = 0
KTA1 142247Z 30002KT 41/09 A2991 RMK A01 T04050093  RH  015%=      5-min Rain = 0
KTA1 142248Z 32002KT 41/09 A2991 RMK A01 T04090092  RH  015%=      5-min Rain = 0
KTA1 142249Z 34004KT 41/09 A2991 RMK A01 T04120093  RH  015%=      5-min Rain = 0
KTA1 142250Z 35003KT 41/09 A2991 RMK A01 T04130093  RH  015%=      5-min Rain = 0
KTA1 142251Z 34002KT 41/09 A2991 RMK A01 T04120094  RH  015%=      5-min Rain = 0
KTA1 142252Z 04004KT 41/09 A2991 RMK A01 T04110093  RH  015%=      5-min Rain = 0
KTA1 142253Z 06004KT 41/09 A2991 RMK A01 T04090090  RH  015%=      5-min Rain = 0
KTA1 142254Z 06003KT 41/09 A2991 RMK A01 T04060089  RH  015%=      5-min Rain = 0
KTA1 142255Z 06004KT 40/09 A2991 RMK A01 T04040090  RH  015%=      5-min Rain = 0
KTA1 142256Z 04005KT 40/09 A2991 RMK A01 T04040093  RH  016%=      5-min Rain = 0
KTA1 142257Z 03004KT 41/09 A2991 RMK A01 T04060091  RH  015%=      5-min Rain = 0
KTA1 142258Z 01002KT 41/09 A2991 RMK A01 T04060090  RH  015%=      5-min Rain = 0
KTA1 142259Z 07001KT 41/09 A2991 RMK A01 T04050089  RH  015%=      5-min Rain = 0
KTA1 142300Z 06002KT 41/09 A2991 RMK A01 T04070091  RH  015%=      5-min Rain = 0
KTA1 142301Z 09003KT 41/09 A2991 RMK A01 T04080091  RH  015%=      5-min Rain = 0
KTA1 142302Z 09003KT 41/09 A2991 RMK A01 T04080091  RH  015%=      5-min Rain = 0
KTA1 142303Z 03001KT 41/09 A2991 RMK A01 T04070090  RH  015%=      5-min Rain = 0
KTA1 142304Z 04002KT 41/09 A2991 RMK A01 T04060089  RH  015%=      5-min Rain = 0
KTA1 142305Z 21002KT 40/09 A2991 RMK A01 T04040088  RH  015%=      5-min Rain = 0
KTA1 142306Z 22006KT 40/09 A2991 RMK A01 T04030086  RH  015%=      5-min Rain = 0
KTA1 142307Z 22007KT 40/09 A2991 RMK A01 T04030085  RH  015%=      5-min Rain = 0
KTA1 142308Z 22009KT 40/08 A2991 RMK A01 T04030084  RH  015%=      5-min Rain = 0
KTA1 142309Z 19003KT 40/09 A2991 RMK A01 T04000085  RH  015%=      5-min Rain = 0
KTA1 142310Z 20003KT 40/09 A2991 RMK A01 T03980085  RH  015%=      5-min Rain = 0
KTA1 142311Z 20004KT 40/08 A2991 RMK A01 T03960083  RH  015%=      5-min Rain = 0
KTA1 142312Z 18007KT 40/08 A2991 RMK A01 T03970083  RH  015%=      5-min Rain = 0
KTA1 142313Z 17005KT 40/08 A2991 RMK A01 T03970083  RH  015%=      5-min Rain = 0
KTA1 142314Z 17004KT 40/08 A2991 RMK A01 T03970083  RH  015%=      5-min Rain = 0
KTA1 142315Z 16002KT 40/08 A2991 RMK A01 T03970083  RH  015%=      5-min Rain = 0
KTA1 142316Z 14002KT 40/08 A299 RMK A01 T03980084  RH  015%=      5-min Rain = 0
KTA1 142317Z 20003KT 40/09 A299 RMK A01 T03980085  RH  015%=      5-min Rain = 0
KTA1 142318Z 19004KT 40/09 A2991 RMK A01 T03990086  RH  015%=      5-min Rain = 0
KTA1 142319Z 18006KT 40/09 A2991 RMK A01 T03990089  RH  016%=      5-min Rain = 0
KTA1 142320Z 16005KT 40/09 A299 RMK A01 T04000089  RH  015%=      5-min Rain = 0
KTA1 142321Z 11007KT 40/09 A2991 RMK A01 T04000089  RH  015%=      5-min Rain = 0
KTA1 142322Z 11005KT 40/09 A2991 RMK A01 T04000089  RH  016%=      5-min Rain = 0
KTA1 142323Z 15003KT 40/09 A2991 RMK A01 T04000091  RH  016%=      5-min Rain = 0
KTA1 142324Z 15003KT 40/09 A2991 RMK A01 T04010092  RH  016%=      5-min Rain = 0
KTA1 142325Z 15005KT 40/09 A2991 RMK A01 T04020091  RH  016%=      5-min Rain = 0
KTA1 142326Z 16004KT 40/09 A2991 RMK A01 T04020091  RH  015%=      5-min Rain = 0
KTA1 142327Z 16004KT 40/09 A2991 RMK A01 T04010090  RH  016%=      5-min Rain = 0
KTA1 142328Z 16003KT 40/09 A2991 RMK A01 T04000090  RH  016%=      5-min Rain = 0
KTA1 142329Z 17004KT 40/09 A2991 RMK A01 T03990090  RH  016%=      5-min Rain = 0
KTA1 142330Z 16004KT 40/09 A2991 RMK A01 T03990089  RH  016%=      5-min Rain = 0
KTA1 142331Z 15004KT 40/09 A2991 RMK A01 T03980088  RH  015%=      5-min Rain = 0
KTA1 142332Z 15004KT 40/09 A2991 RMK A01 T03980088  RH  015%=      5-min Rain = 0
KTA1 142333Z 14003KT 40/09 A2991 RMK A01 T03980088  RH  015%=      5-min Rain = 0
KTA1 142334Z 14001KT 40/09 A2991 RMK A01 T03970087  RH  015%=      5-min Rain = 0
KTA1 142335Z 14001KT 40/09 A2991 RMK A01 T03970086  RH  015%=      5-min Rain = 0
KTA1 142336Z 17001KT 40/09 A2991 RMK A01 T03970086  RH  015%=      5-min Rain = 0
KTA1 142337Z 15003KT 40/09 A2991 RMK A01 T03960088  RH  016%=      5-min Rain = 0
KTA1 142338Z 15005KT 40/09 A299 RMK A01 T03970088  RH  016%=      5-min Rain = 0
KTA1 142339Z 16005KT 40/09 A299 RMK A01 T03960088  RH  016%=      5-min Rain = 0
KTA1 142340Z 16004KT 40/09 A299 RMK A01 T03960088  RH  016%=      5-min Rain = 0
KTA1 142341Z 16004KT 40/09 A299 RMK A01 T03960087  RH  016%=      5-min Rain = 0
KTA1 142342Z 15003KT 40/09 A2991 RMK A01 T03950087  RH  016%=      5-min Rain = 0
KTA1 142343Z 12002KT 40/09 A2991 RMK A01 T03950086  RH  016%=      5-min Rain = 0
KTA1 142344Z 13001KT 40/09 A2991 RMK A01 T03950086  RH  016%=      5-min Rain = 0
KTA1 142345Z 13001KT 39/09 A2991 RMK A01 T03940085  RH  016%=      5-min Rain = 0
KTA1 142346Z 16000KT 39/09 A2991 RMK A01 T03940086  RH  016%=      5-min Rain = 0
KTA1 142347Z 16001KT 39/09 A299 RMK A01 T03940086  RH  016%=      5-min Rain = 0
KTA1 142348Z 15003KT 39/09 A299 RMK A01 T03940087  RH  016%=      5-min Rain = 0
KTA1 142349Z 16002KT 39/09 A299 RMK A01 T03940087  RH  016%=      5-min Rain = 0
KTA1 142350Z 17002KT 39/09 A299 RMK A01 T03940086  RH  016%=      5-min Rain = 0
KTA1 142351Z 19001KT 39/09 A299 RMK A01 T03940087  RH  016%=      5-min Rain = 0
KTA1 142352Z 18001KT 39/09 A299 RMK A01 T03940087  RH  016%=      5-min Rain = 0
KTA1 142353Z 17001KT 39/09 A299 RMK A01 T03940086  RH  016%=      5-min Rain = 0
KTA1 142354Z 18001KT 39/09 A299 RMK A01 T03940087  RH  016%=      5-min Rain = 0
KTA1 142355Z 17001KT 39/09 A299 RMK A01 T03940087  RH  016%=      5-min Rain = 0
KTA1 142356Z 18001KT 39/09 A299 RMK A01 T03940087  RH  016%=      5-min Rain = 0
KTA1 142357Z 18001KT 40/09 A299 RMK A01 T03950087  RH  016%=      5-min Rain = 0
KTA1 142358Z 34001KT 40/09 A299 RMK A01 T03950086  RH  016%=      5-min Rain = 0
KTA1 142359Z 23001KT 40/09 A299 RMK A01 T03950086  RH  016%=      5-min Rain = 0
KTA1 150000Z 24001KT 40/09 A299 RMK A01 T03950086  RH  016%=      5-min Rain = 0
KTA1 150001Z 26002KT 40/09 A299 RMK A01 T03960087  RH  016%=      5-min Rain = 0
KTA1 150002Z 22001KT 40/09 A299 RMK A01 T03960087  RH  016%=      5-min Rain = 0
KTA1 150003Z 26001KT 40/09 A299 RMK A01 T03960085  RH  015%=      5-min Rain = 0
KTA1 150004Z 23003KT 40/09 A299 RMK A01 T03960085  RH  015%=      5-min Rain = 0
KTA1 150005Z 23004KT 40/09 A299 RMK A01 T03960085  RH  015%=      5-min Rain = 0
KTA1 150006Z 26002KT 40/09 A299 RMK A01 T03950085  RH  015%=      5-min Rain = 0
KTA1 150007Z 27001KT 40/09 A299 RMK A01 T03950086  RH  016%=      5-min Rain = 0
KTA1 150008Z 28000KT 40/09 A299 RMK A01 T03950086  RH  016%=      5-min Rain = 0
KTA1 150009Z 00000KT 40/09 A299 RMK A01 T03950085  RH  015%=      5-min Rain = 0
KTA1 150010Z 17001KT 40/09 A299 RMK A01 T03950085  RH  015%=      5-min Rain = 0
KTA1 150011Z 18003KT 40/09 A299 RMK A01 T03950085  RH  015%=      5-min Rain = 0
KTA1 150012Z 23002KT 40/09 A299 RMK A01 T03950086  RH  016%=      5-min Rain = 0
KTA1 150013Z 21006KT 40/09 A299 RMK A01 T03950087  RH  016%=      5-min Rain = 0
KTA1 150014Z 14004KT 40/09 A299 RMK A01 T03950087  RH  016%=      5-min Rain = 0
KTA1 150015Z 09004KT 40/09 A299 RMK A01 T03950088  RH  016%=      5-min Rain = 0
KTA1 150016Z 11004KT 39/09 A299 RMK A01 T03940088  RH  016%=      5-min Rain = 0
KTA1 150017Z 11003KT 39/09 A299 RMK A01 T03940087  RH  016%=      5-min Rain = 0
KTA1 150018Z 11003KT 39/09 A299 RMK A01 T03940087  RH  016%=      5-min Rain = 0
KTA1 150019Z 11002KT 39/09 A299 RMK A01 T03930087  RH  016%=      5-min Rain = 0
KTA1 150020Z 11001KT 39/09 A2991 RMK A01 T03930087  RH  016%=      5-min Rain = 0
KTA1 150021Z 08002KT 39/09 A2991 RMK A01 T03930088  RH  016%=      5-min Rain = 0
KTA1 150022Z 08002KT 39/09 A2991 RMK A01 T03930089  RH  016%=      5-min Rain = 0
KTA1 150023Z 09002KT 39/09 A2991 RMK A01 T03930089  RH  016%=      5-min Rain = 0
KTA1 150024Z 10002KT 39/09 A2991 RMK A01 T03930088  RH  016%=      5-min Rain = 0
KTA1 150025Z 10001KT 39/09 A2991 RMK A01 T03930088  RH  016%=      5-min Rain = 0
KTA1 150026Z 09002KT 39/09 A2991 RMK A01 T03930089  RH  016%=      5-min Rain = 0
KTA1 150027Z 09002KT 39/09 A2991 RMK A01 T03930089  RH  016%=      5-min Rain = 0
KTA1 150028Z 09002KT 39/09 A2991 RMK A01 T03930090  RH  016%=      5-min Rain = 0
KTA1 150029Z 07002KT 39/09 A2991 RMK A01 T03930090  RH  016%=      5-min Rain = 0
KTA1 150030Z 07002KT 39/09 A2991 RMK A01 T03930089  RH  016%=      5-min Rain = 0
KTA1 150031Z 06002KT 39/09 A2991 RMK A01 T03930088  RH  016%=      5-min Rain = 0
KTA1 150032Z 04002KT 39/09 A2991 RMK A01 T03920089  RH  016%=      5-min Rain = 0
KTA1 150033Z 04002KT 39/09 A2991 RMK A01 T03920090  RH  016%=      5-min Rain = 0
KTA1 150034Z 02002KT 39/09 A2991 RMK A01 T03920092  RH  016%=      5-min Rain = 0
KTA1 150035Z 36002KT 39/09 A2991 RMK A01 T03910091  RH  016%=      5-min Rain = 0
KTA1 150036Z 35002KT 39/09 A2991 RMK A01 T03920091  RH  016%=      5-min Rain = 0
KTA1 150037Z 35003KT 39/09 A2991 RMK A01 T03910088  RH  016%=      5-min Rain = 0
KTA1 150038Z 33003KT 39/09 A2991 RMK A01 T03910090  RH  016%=      5-min Rain = 0
KTA1 150039Z 32004KT 39/10 A2991 RMK A01 T03910095  RH  017%=      5-min Rain = 0
KTA1 150040Z 32004KT 39/09 A2991 RMK A01 T03900093  RH  017%=      5-min Rain = 0
KTA1 150041Z 32002KT 39/09 A2991 RMK A01 T03900090  RH  016%=      5-min Rain = 0
KTA1 150042Z 33003KT 39/09 A2991 RMK A01 T03900090  RH  016%=      5-min Rain = 0
KTA1 150043Z 32004KT 39/09 A2991 RMK A01 T03900092  RH  017%=      5-min Rain = 0
KTA1 150044Z 33003KT 39/09 A2991 RMK A01 T03900094  RH  017%=      5-min Rain = 0
KTA1 150045Z 32005KT 39/10 A2991 RMK A01 T03890098  RH  017%=      5-min Rain = 0
KTA1 150046Z 32005KT 39/10 A2991 RMK A01 T03870099  RH  018%=      5-min Rain = 0
KTA1 150047Z 32005KT 39/10 A2991 RMK A01 T03860100  RH  018%=      5-min Rain = 0
KTA1 150048Z 32006KT 38/10 A2991 RMK A01 T03840100  RH  018%=      5-min Rain = 0
KTA1 150049Z 32005KT 38/10 A2991 RMK A01 T03830100  RH  018%=      5-min Rain = 0
KTA1 150050Z 32006KT 38/10 A2991 RMK A01 T03820101  RH  018%=      5-min Rain = 0
KTA1 150051Z 33005KT 38/10 A2991 RMK A01 T03820099  RH  018%=      5-min Rain = 0
KTA1 150052Z 32005KT 38/10 A2991 RMK A01 T03810099  RH  018%=      5-min Rain = 0
KTA1 150053Z 33004KT 38/10 A2991 RMK A01 T03820100  RH  018%=      5-min Rain = 0
KTA1 150054Z 33005KT 38/10 A2991 RMK A01 T03810098  RH  018%=      5-min Rain = 0
KTA1 150055Z 33005KT 38/10 A2991 RMK A01 T03810095  RH  018%=      5-min Rain = 0
KTA1 150056Z 33005KT 38/09 A2991 RMK A01 T03810094  RH  018%=      5-min Rain = 0
KTA1 150057Z 34005KT 38/09 A2991 RMK A01 T03810093  RH  018%=      5-min Rain = 0
KTA1 150058Z 33005KT 38/09 A2992 RMK A01 T03810094  RH  018%=      5-min Rain = 0
KTA1 150059Z 32004KT 38/10 A2992 RMK A01 T03810095  RH  018%=      5-min Rain = 0
KTA1 150100Z 32004KT 38/10 A2992 RMK A01 T03810095  RH  018%=      5-min Rain = 0
KTA1 150101Z 33004KT 38/09 A2992 RMK A01 T03810093  RH  018%=      5-min Rain = 0
KTA1 150102Z 33004KT 38/09 A2992 RMK A01 T03800093  RH  018%=      5-min Rain = 0
KTA1 150103Z 33004KT 38/09 A2992 RMK A01 T03800093  RH  018%=      5-min Rain = 0
KTA1 150104Z 33005KT 38/09 A2992 RMK A01 T03800092  RH  018%=      5-min Rain = 0
KTA1 150105Z 33004KT 38/09 A2992 RMK A01 T03800091  RH  017%=      5-min Rain = 0
KTA1 150106Z 33005KT 38/09 A2992 RMK A01 T03800091  RH  017%=      5-min Rain = 0
KTA1 150107Z 33006KT 38/09 A2992 RMK A01 T03800090  RH  017%=      5-min Rain = 0
KTA1 150108Z 33005KT 38/09 A2992 RMK A01 T03800089  RH  017%=      5-min Rain = 0
KTA1 150109Z 33004KT 38/09 A2992 RMK A01 T03800089  RH  017%=      5-min Rain = 0
KTA1 150110Z 33005KT 38/09 A2992 RMK A01 T03790088  RH  017%=      5-min Rain = 0
KTA1 150111Z 34004KT 38/09 A2992 RMK A01 T03800089  RH  017%=      5-min Rain = 0
KTA1 150112Z 33005KT 38/09 A2992 RMK A01 T03800089  RH  017%=      5-min Rain = 0
KTA1 150113Z 33005KT 38/09 A2992 RMK A01 T03790089  RH  017%=      5-min Rain = 0
KTA1 150114Z 33005KT 38/09 A2992 RMK A01 T03790089  RH  017%=      5-min Rain = 0
KTA1 150115Z 33005KT 38/09 A2992 RMK A01 T03790088  RH  017%=      5-min Rain = 0
KTA1 150116Z 34005KT 38/09 A2992 RMK A01 T03790088  RH  017%=      5-min Rain = 0
KTA1 150117Z 34005KT 38/09 A2992 RMK A01 T03790089  RH  017%=      5-min Rain = 0
KTA1 150118Z 36005KT 38/09 A2993 RMK A01 T03780088  RH  017%=      5-min Rain = 0
KTA1 150119Z 00006KT 38/09 A2993 RMK A01 T03780088  RH  017%=      5-min Rain = 0
KTA1 150120Z 36007KT 38/09 A2993 RMK A01 T03780088  RH  017%=      5-min Rain = 0
KTA1 150121Z 00007KT 38/09 A2993 RMK A01 T03780090  RH  017%=      5-min Rain = 0
KTA1 150122Z 01006KT 38/09 A2993 RMK A01 T03780091  RH  018%=      5-min Rain = 0
KTA1 150123Z 01006KT 38/09 A2993 RMK A01 T03780092  RH  018%=      5-min Rain = 0
KTA1 150124Z 02006KT 38/09 A2993 RMK A01 T03780093  RH  018%=      5-min Rain = 0
KTA1 150125Z 01007KT 38/10 A2993 RMK A01 T03780095  RH  018%=      5-min Rain = 0
KTA1 150126Z 01007KT 38/10 A2993 RMK A01 T03770099  RH  019%=      5-min Rain = 0
KTA1 150127Z 01007KT 38/10 A2993 RMK A01 T03760102  RH  019%=      5-min Rain = 0
KTA1 150128Z 01006KT 38/10 A2993 RMK A01 T03750104  RH  020%=      5-min Rain = 0
KTA1 150129Z 01006KT 37/11 A2993 RMK A01 T03740107  RH  020%=      5-min Rain = 0
KTA1 150130Z 01006KT 37/11 A2993 RMK A01 T03740109  RH  020%=      5-min Rain = 0
KTA1 150131Z 01006KT 37/11 A2993 RMK A01 T03730111  RH  021%=      5-min Rain = 0
KTA1 150132Z 01005KT 37/11 A2993 RMK A01 T03720113  RH  021%=      5-min Rain = 0
KTA1 150133Z 00005KT 37/11 A2993 RMK A01 T03720113  RH  021%=      5-min Rain = 0
KTA1 150134Z 00004KT 37/11 A2993 RMK A01 T03720113  RH  021%=      5-min Rain = 0
KTA1 150135Z 01004KT 37/11 A2993 RMK A01 T03710111  RH  021%=      5-min Rain = 0
KTA1 150136Z 01004KT 37/11 A2993 RMK A01 T03710109  RH  021%=      5-min Rain = 0
KTA1 150137Z 01004KT 37/11 A2993 RMK A01 T03710108  RH  020%=      5-min Rain = 0
KTA1 150138Z 01004KT 37/11 A2993 RMK A01 T03710108  RH  021%=      5-min Rain = 0
KTA1 150139Z 01004KT 37/11 A2993 RMK A01 T03700107  RH  021%=      5-min Rain = 0
KTA1 150140Z 01004KT 37/11 A2993 RMK A01 T03700107  RH  020%=      5-min Rain = 0
KTA1 150141Z 01004KT 37/11 A2993 RMK A01 T03690106  RH  020%=      5-min Rain = 0
KTA1 150142Z 01004KT 37/11 A2993 RMK A01 T03690105  RH  020%=      5-min Rain = 0
KTA1 150143Z 01004KT 37/11 A2993 RMK A01 T03680105  RH  020%=      5-min Rain = 0
KTA1 150144Z 00004KT 37/10 A2993 RMK A01 T03680103  RH  020%=      5-min Rain = 0
KTA1 150145Z 01004KT 37/10 A2993 RMK A01 T03670103  RH  020%=      5-min Rain = 0
KTA1 150146Z 01005KT 37/10 A2993 RMK A01 T03670101  RH  020%=      5-min Rain = 0
KTA1 150147Z 01004KT 37/10 A2993 RMK A01 T03660099  RH  020%=      5-min Rain = 0
KTA1 150148Z 01005KT 37/10 A2993 RMK A01 T03660098  RH  020%=      5-min Rain = 0
KTA1 150149Z 01005KT 37/10 A2993 RMK A01 T03660097  RH  020%=      5-min Rain = 0
KTA1 150150Z 01005KT 37/10 A2993 RMK A01 T03650096  RH  020%=      5-min Rain = 0
KTA1 150151Z 01005KT 37/10 A2993 RMK A01 T03650096  RH  020%=      5-min Rain = 0
KTA1 150152Z 01005KT 37/10 A2993 RMK A01 T03650096  RH  020%=      5-min Rain = 0
KTA1 150153Z 01006KT 36/10 A2993 RMK A01 T03640095  RH  020%=      5-min Rain = 0
KTA1 150154Z 01006KT 36/09 A2993 RMK A01 T03640094  RH  019%=      5-min Rain = 0
KTA1 150155Z 01006KT 36/09 A2993 RMK A01 T03640093  RH  019%=      5-min Rain = 0
KTA1 150156Z 02006KT 36/09 A2993 RMK A01 T03640093  RH  019%=      5-min Rain = 0
KTA1 150157Z 02006KT 36/09 A2993 RMK A01 T03640094  RH  019%=      5-min Rain = 0
KTA1 150158Z 02006KT 36/09 A2993 RMK A01 T03640094  RH  019%=      5-min Rain = 0
KTA1 150159Z 02006KT 36/09 A2993 RMK A01 T03640094  RH  019%=      5-min Rain = 0
KTA1 150200Z 02006KT 36/09 A2993 RMK A01 T03630094  RH  019%=      5-min Rain = 0
KTA1 150201Z 02006KT 36/09 A2993 RMK A01 T03630094  RH  019%=      5-min Rain = 0
KTA1 150202Z 02006KT 36/09 A2993 RMK A01 T03630094  RH  019%=      5-min Rain = 0
KTA1 150203Z 02006KT 36/09 A2993 RMK A01 T03630094  RH  020%=      5-min Rain = 0
KTA1 150204Z 02006KT 36/09 A2993 RMK A01 T03620094  RH  020%=      5-min Rain = 0
KTA1 150205Z 03007KT 36/09 A2993 RMK A01 T03620094  RH  020%=      5-min Rain = 0
KTA1 150206Z 03006KT 36/09 A2993 RMK A01 T03610094  RH  020%=      5-min Rain = 0
KTA1 150207Z 02006KT 36/10 A2993 RMK A01 T03610095  RH  020%=      5-min Rain = 0
KTA1 150208Z 02006KT 36/10 A2993 RMK A01 T03600095  RH  020%=      5-min Rain = 0
KTA1 150209Z 02006KT 36/10 A2993 RMK A01 T03600095  RH  020%=      5-min Rain = 0
KTA1 150210Z 02006KT 36/10 A2993 RMK A01 T03590096  RH  020%=      5-min Rain = 0
KTA1 150211Z 02006KT 36/10 A2993 RMK A01 T03590096  RH  020%=      5-min Rain = 0
KTA1 150212Z 02006KT 36/10 A2994 RMK A01 T03580097  RH  020%=      5-min Rain = 0
KTA1 150213Z 01006KT 36/10 A2994 RMK A01 T03570097  RH  021%=      5-min Rain = 0
KTA1 150214Z 01005KT 36/10 A2994 RMK A01 T03570097  RH  021%=      5-min Rain = 0
KTA1 150215Z 01005KT 36/10 A2994 RMK A01 T03570097  RH  021%=      5-min Rain = 0
KTA1 150216Z 01005KT 36/10 A2994 RMK A01 T03570097  RH  021%=      5-min Rain = 0
KTA1 150217Z 01005KT 36/10 A2994 RMK A01 T03570097  RH  021%=      5-min Rain = 0
KTA1 150218Z 00005KT 36/10 A2994 RMK A01 T03570097  RH  021%=      5-min Rain = 0
KTA1 150219Z 00006KT 36/10 A2994 RMK A01 T03570097  RH  021%=      5-min Rain = 0
KTA1 150220Z 36007KT 36/10 A2994 RMK A01 T03570097  RH  021%=      5-min Rain = 0
KTA1 150221Z 35009KT 36/10 A2994 RMK A01 T03570097  RH  021%=      5-min Rain = 0
KTA1 150222Z 00009KT 36/10 A2994 RMK A01 T03560098  RH  021%=      5-min Rain = 0
KTA1 150223Z 01010KT 36/10 A2994 RMK A01 T03580103  RH  021%=      5-min Rain = 0
KTA1 150224Z 01010KT 36/10 A2994 RMK A01 T03580104  RH  021%=      5-min Rain = 0
KTA1 150225Z 02011KT 36/11 A2994 RMK A01 T03580105  RH  022%=      5-min Rain = 0
KTA1 150226Z 02011KT 36/11 A2994 RMK A01 T03580106  RH  022%=      5-min Rain = 0
KTA1 150227Z 02011KT 36/11 A2995 RMK A01 T03580106  RH  022%=      5-min Rain = 0
KTA1 150228Z 02011KT 36/11 A2995 RMK A01 T03570106  RH  022%=      5-min Rain = 0
KTA1 150229Z 02010KT 36/11 A2995 RMK A01 T03570105  RH  022%=      5-min Rain = 0
KTA1 150230Z 02013KT 36/10 A2995 RMK A01 T03570103  RH  021%=      5-min Rain = 0
KTA1 150231Z 03010KT 36/10 A2995 RMK A01 T03570102  RH  021%=      5-min Rain = 0
KTA1 150232Z 03010KT 36/10 A2995 RMK A01 T03570102  RH  021%=      5-min Rain = 0
KTA1 150233Z 03009KT 36/10 A2995 RMK A01 T03570102  RH  021%=      5-min Rain = 0
KTA1 150234Z 03010KT 36/10 A2995 RMK A01 T03570103  RH  022%=      5-min Rain = 0
KTA1 150235Z 03012KT 36/10 A2995 RMK A01 T03560104  RH  022%=      5-min Rain = 0
KTA1 150236Z 03013KT 36/10 A2995 RMK A01 T03550103  RH  022%=      5-min Rain = 0
KTA1 150237Z 03014KT 36/10 A2995 RMK A01 T03550102  RH  021%=      5-min Rain = 0
KTA1 150238Z 04015KT 36/10 A2995 RMK A01 T03560104  RH  022%=      5-min Rain = 0
KTA1 150239Z 04015KT 36/11 A2995 RMK A01 T03560108  RH  022%=      5-min Rain = 0
KTA1 150240Z 04017G26KT 36/10 A2996 RMK A01 T03550103  RH  022%=      5-min Rain = 0
KTA1 150241Z 03016KT 36/10 A2996 RMK A01 T03580098  RH  021%=      5-min Rain = 0
KTA1 150242Z 04015KT 36/11 A2996 RMK A01 T03590105  RH  021%=      5-min Rain = 0
KTA1 150243Z 05012KT 36/11 A2996 RMK A01 T03580110  RH  022%=      5-min Rain = 0
KTA1 150244Z 03016KT 36/10 A2996 RMK A01 T03550101  RH  021%=      5-min Rain = 0
KTA1 150245Z 03012G18KT 36/09 A2996 RMK A01 T03570089  RH  020%=      5-min Rain = 0
KTA1 150246Z 04013G20KT 36/09 A2996 RMK A01 T03610087  RH  019%=      5-min Rain = 0
KTA1 150247Z 05011KT 36/09 A2996 RMK A01 T03640091  RH  019%=      5-min Rain = 0
KTA1 150248Z 01005G10KT 36/09 A2996 RMK A01 T03630094  RH  019%=      5-min Rain = 0
KTA1 150249Z 33007KT 36/09 A2996 RMK A01 T03620089  RH  019%=      5-min Rain = 0
KTA1 150250Z 36004KT 36/09 A2996 RMK A01 T03620088  RH  019%=      5-min Rain = 0
KTA1 150251Z 03010KT 36/09 A2996 RMK A01 T03630086  RH  018%=      5-min Rain = 0
KTA1 150252Z 07011KT 37/08 A2996 RMK A01 T03650084  RH  018%=      5-min Rain = 0
KTA1 150253Z 06009G15KT 37/08 A2996 RMK A01 T03670084  RH  018%=      5-min Rain = 0
KTA1 150254Z 09008KT 37/08 A2996 RMK A01 T03700084  RH  018%=      5-min Rain = 0
KTA1 150255Z 12007KT 37/09 A2996 RMK A01 T03700085  RH  018%=      5-min Rain = 0
KTA1 150256Z 11006KT 37/09 A2996 RMK A01 T03690085  RH  018%=      5-min Rain = 0
KTA1 150257Z 11008G13KT 37/09 A2996 RMK A01 T03670085  RH  018%=      5-min Rain = 0
KTA1 150258Z 11014KT 37/08 A2996 RMK A01 T03660083  RH  018%=      5-min Rain = 0
KTA1 150259Z 10013KT 37/08 A2996 RMK A01 T03660082  RH  018%=      5-min Rain = 0
KTA1 150300Z 12015KT 37/08 A2996 RMK A01 T03670083  RH  018%=      5-min Rain = 0
KTA1 150301Z 12015KT 37/08 A2996 RMK A01 T03670083  RH  018%=      5-min Rain = 0
KTA1 150302Z 13014KT 37/08 A2996 RMK A01 T03680083  RH  018%=      5-min Rain = 0
KTA1 150303Z 14007KT 37/08 A2996 RMK A01 T03680083  RH  018%=      5-min Rain = 0
KTA1 150304Z 17005KT 37/08 A2996 RMK A01 T03680084  RH  018%=      5-min Rain = 0
KTA1 150305Z 14008G14KT 37/09 A2996 RMK A01 T03680085  RH  018%=      5-min Rain = 0
KTA1 150306Z 12013G19KT 37/09 A2996 RMK A01 T03670086  RH  018%=      5-min Rain = 0
KTA1 150307Z 11014KT 37/09 A2996 RMK A01 T03660085  RH  018%=      5-min Rain = 0
KTA1 150308Z 11014KT 37/09 A2996 RMK A01 T03660086  RH  018%=      5-min Rain = 0
KTA1 150309Z 12011KT 37/09 A2996 RMK A01 T03660086  RH  018%=      5-min Rain = 0
KTA1 150310Z 13006KT 37/09 A2996 RMK A01 T03660086  RH  018%=      5-min Rain = 0
KTA1 150311Z 16008KT 37/08 A2996 RMK A01 T03660084  RH  018%=      5-min Rain = 0
KTA1 150312Z 15010KT 37/08 A2996 RMK A01 T03660084  RH  018%=      5-min Rain = 0
KTA1 150313Z 14010KT 37/08 A2996 RMK A01 T03670084  RH  018%=      5-min Rain = 0
KTA1 150314Z 11012KT 37/08 A2996 RMK A01 T03680084  RH  018%=      5-min Rain = 0
KTA1 150315Z 11013KT 37/09 A2996 RMK A01 T03680085  RH  018%=      5-min Rain = 0
KTA1 150316Z 11014KT 37/09 A2996 RMK A01 T03660087  RH  018%=      5-min Rain = 0
KTA1 150317Z 12014KT 36/09 A2996 RMK A01 T03630089  RH  019%=      5-min Rain = 0
KTA1 150318Z 12015KT 36/09 A2996 RMK A01 T03610090  RH  019%=      5-min Rain = 0
KTA1 150319Z 12016KT 36/09 A2996 RMK A01 T03590090  RH  019%=      5-min Rain = 0
KTA1 150320Z 11018KT 36/09 A2996 RMK A01 T03590090  RH  019%=      5-min Rain = 0
KTA1 150321Z 10018KT 36/09 A2996 RMK A01 T03580091  RH  020%=      5-min Rain = 0
KTA1 150322Z 09019KT 36/09 A2996 RMK A01 T03580091  RH  020%=      5-min Rain = 0
KTA1 150323Z 11014G21KT 36/09 A2996 RMK A01 T03570092  RH  020%=      5-min Rain = 0
KTA1 150324Z 14020G26KT 36/09 A2996 RMK A01 T03570090  RH  020%=      5-min Rain = 0
KTA1 150325Z 13021G26KT 36/09 A2996 RMK A01 T03600088  RH  019%=      5-min Rain = 0
KTA1 150326Z 14011KT 36/09 A2995 RMK A01 T03630088  RH  019%=      5-min Rain = 0
KTA1 150327Z 13015KT 36/09 A2995 RMK A01 T03640088  RH  019%=      5-min Rain = 0
KTA1 150328Z 14014KT 36/09 A2995 RMK A01 T03640089  RH  019%=      5-min Rain = 0
KTA1 150329Z 13014KT 36/09 A2995 RMK A01 T03620090  RH  019%=      5-min Rain = 0
KTA1 150330Z 14017KT 36/09 A2995 RMK A01 T03610089  RH  019%=      5-min Rain = 0
KTA1 150331Z 16013KT 36/09 A2995 RMK A01 T03600085  RH  019%=      5-min Rain = 0
KTA1 150332Z 15010KT 36/08 A2995 RMK A01 T03620083  RH  018%=      5-min Rain = 0
KTA1 150333Z 14010KT 36/09 A2995 RMK A01 T03630086  RH  019%=      5-min Rain = 0
KTA1 150334Z 14010KT 36/09 A2995 RMK A01 T03620087  RH  019%=      5-min Rain = 0
KTA1 150335Z 12014KT 36/09 A2995 RMK A01 T03600087  RH  019%=      5-min Rain = 0
KTA1 150336Z 14009KT 36/09 A2995 RMK A01 T03590087  RH  019%=      5-min Rain = 0
KTA1 150337Z 14009KT 36/09 A2995 RMK A01 T03600087  RH  019%=      5-min Rain = 0
KTA1 150338Z 16012KT 36/09 A2995 RMK A01 T03590087  RH  019%=      5-min Rain = 0
KTA1 150339Z 15017KT 36/09 A2995 RMK A01 T03590085  RH  019%=      5-min Rain = 0
KTA1 150340Z 14015KT 36/09 A2995 RMK A01 T03600087  RH  019%=      5-min Rain = 0
KTA1 150341Z 16021G26KT 36/09 A2995 RMK A01 T03600088  RH  019%=      5-min Rain = 0
KTA1 150342Z 16018G24KT 36/09 A2995 RMK A01 T03590089  RH  019%=      5-min Rain = 0
KTA1 150343Z 16014G21KT 36/09 A2995 RMK A01 T03590089  RH  019%=      5-min Rain = 0
KTA1 150344Z 17016G22KT 36/09 A2995 RMK A01 T03590089  RH  019%=      5-min Rain = 0
KTA1 150345Z 17016KT 36/09 A2995 RMK A01 T03590088  RH  019%=      5-min Rain = 0
KTA1 150346Z 17012KT 36/09 A2995 RMK A01 T03580091  RH  020%=      5-min Rain = 0
KTA1 150347Z 17011KT 36/09 A2995 RMK A01 T03570090  RH  020%=      5-min Rain = 0
KTA1 150348Z 17010KT 36/09 A2995 RMK A01 T03570090  RH  020%=      5-min Rain = 0
KTA1 150349Z 18011KT 36/09 A2995 RMK A01 T03560090  RH  020%=      5-min Rain = 0
KTA1 150350Z 18010KT 36/09 A2995 RMK A01 T03560089  RH  020%=      5-min Rain = 0
KTA1 150351Z 17010KT 36/09 A2995 RMK A01 T03560088  RH  019%=      5-min Rain = 0
KTA1 150352Z 17010KT 36/09 A2995 RMK A01 T03570088  RH  019%=      5-min Rain = 0
KTA1 150353Z 16010KT 36/09 A2995 RMK A01 T03570088  RH  019%=      5-min Rain = 0
KTA1 150354Z 15010KT 36/09 A2995 RMK A01 T03580088  RH  019%=      5-min Rain = 0
KTA1 150355Z 15010KT 36/09 A2995 RMK A01 T03570088  RH  019%=      5-min Rain = 0
KTA1 150356Z 15010KT 36/09 A2995 RMK A01 T03570086  RH  019%=      5-min Rain = 0
KTA1 150357Z 15008KT 36/09 A2995 RMK A01 T03570086  RH  019%=      5-min Rain = 0
KTA1 150358Z 14007KT 36/09 A2995 RMK A01 T03580086  RH  019%=      5-min Rain = 0
KTA1 150359Z 14009KT 36/09 A2995 RMK A01 T03580086  RH  019%=      5-min Rain = 0
KTA1 150400Z 15007KT 36/09 A2995 RMK A01 T03580085  RH  019%=      5-min Rain = 0
KTA1 150401Z 15006KT 36/08 A2995 RMK A01 T03600084  RH  019%=      5-min Rain = 0
KTA1 150402Z 15008KT 36/08 A2995 RMK A01 T03610084  RH  018%=      5-min Rain = 0
KTA1 150403Z 13011KT 36/09 A2995 RMK A01 T03610085  RH  019%=      5-min Rain = 0
KTA1 150404Z 13011KT 36/09 A2995 RMK A01 T03610085  RH  019%=      5-min Rain = 0
KTA1 150405Z 13012G18KT 36/09 A2995 RMK A01 T03590086  RH  019%=      5-min Rain = 0
KTA1 150406Z 12014KT 36/09 A2996 RMK A01 T03570085  RH  019%=      5-min Rain = 0
KTA1 150407Z 10014KT 36/09 A2996 RMK A01 T03560085  RH  019%=      5-min Rain = 0
KTA1 150408Z 10016KT 36/08 A2995 RMK A01 T03560084  RH  019%=      5-min Rain = 0
KTA1 150409Z 10013KT 36/08 A2996 RMK A01 T03560083  RH  019%=      5-min Rain = 0
KTA1 150410Z 09012KT 36/08 A2996 RMK A01 T03560084  RH  019%=      5-min Rain = 0
KTA1 150411Z 10013KT 36/08 A2996 RMK A01 T03550084  RH  019%=      5-min Rain = 0
KTA1 150412Z 10012KT 35/09 A2996 RMK A01 T03540085  RH  019%=      5-min Rain = 0
KTA1 150413Z 09012KT 35/09 A2996 RMK A01 T03540086  RH  019%=      5-min Rain = 0
KTA1 150414Z 09011KT 35/09 A2996 RMK A01 T03530086  RH  019%=      5-min Rain = 0
KTA1 150415Z 09010KT 35/09 A2996 RMK A01 T03520086  RH  020%=      5-min Rain = 0
KTA1 150416Z 09010KT 35/09 A2996 RMK A01 T03510085  RH  020%=      5-min Rain = 0
KTA1 150417Z 08009KT 35/09 A2997 RMK A01 T03490085  RH  020%=      5-min Rain = 0
KTA1 150418Z 08008KT 35/09 A2997 RMK A01 T03490085  RH  020%=      5-min Rain = 0
KTA1 150419Z 08007KT 35/09 A2997 RMK A01 T03470086  RH  020%=      5-min Rain = 0
KTA1 150420Z 08007KT 35/09 A2997 RMK A01 T03460086  RH  020%=      5-min Rain = 0
KTA1 150421Z 08007KT 35/09 A2997 RMK A01 T03450086  RH  020%=      5-min Rain = 0
KTA1 150422Z 08007KT 34/09 A2997 RMK A01 T03440086  RH  021%=      5-min Rain = 0
KTA1 150423Z 08007KT 34/09 A2997 RMK A01 T03430086  RH  021%=      5-min Rain = 0
KTA1 150424Z 08007KT 34/09 A2997 RMK A01 T03430086  RH  021%=      5-min Rain = 0
KTA1 150425Z 07007KT 34/09 A2997 RMK A01 T03420087  RH  021%=      5-min Rain = 0
KTA1 150426Z 07008KT 34/09 A2997 RMK A01 T03410087  RH  021%=      5-min Rain = 0
KTA1 150427Z 08007KT 34/09 A2997 RMK A01 T03400087  RH  021%=      5-min Rain = 0
KTA1 150428Z 08007KT 34/09 A2997 RMK A01 T03390086  RH  021%=      5-min Rain = 0
KTA1 150429Z 08009KT 34/09 A2997 RMK A01 T03390086  RH  021%=      5-min Rain = 0
KTA1 150430Z 09008KT 34/09 A2997 RMK A01 T03390086  RH  021%=      5-min Rain = 0
KTA1 150431Z 10007KT 34/09 A2997 RMK A01 T03390086  RH  021%=      5-min Rain = 0
KTA1 150432Z 09006KT 34/09 A2997 RMK A01 T03390086  RH  021%=      5-min Rain = 0
KTA1 150433Z 09006KT 34/09 A2997 RMK A01 T03390085  RH  021%=      5-min Rain = 0
KTA1 150434Z 08006KT 34/09 A2997 RMK A01 T03390086  RH  021%=      5-min Rain = 0
KTA1 150435Z 08006KT 34/09 A2997 RMK A01 T03380086  RH  021%=      5-min Rain = 0
KTA1 150436Z 08007KT 34/09 A2997 RMK A01 T03370086  RH  021%=      5-min Rain = 0
KTA1 150437Z 08008KT 34/09 A2997 RMK A01 T03360086  RH  021%=      5-min Rain = 0
KTA1 150438Z 09007KT 34/09 A2997 RMK A01 T03370086  RH  021%=      5-min Rain = 0
KTA1 150439Z 09007KT 34/09 A2997 RMK A01 T03380086  RH  021%=      5-min Rain = 0
KTA1 150440Z 09007KT 34/09 A2997 RMK A01 T03380086  RH  021%=      5-min Rain = 0
KTA1 150441Z 09008KT 34/09 A2997 RMK A01 T03380086  RH  021%=      5-min Rain = 0
KTA1 150442Z 09009KT 34/08 A2997 RMK A01 T03380084  RH  021%=      5-min Rain = 0
KTA1 150443Z 10008KT 34/08 A2997 RMK A01 T03400083  RH  021%=      5-min Rain = 0
KTA1 150444Z 10006KT 34/08 A2997 RMK A01 T03420083  RH  020%=      5-min Rain = 0
KTA1 150445Z 09006KT 34/08 A2997 RMK A01 T03430083  RH  020%=      5-min Rain = 0
KTA1 150446Z 09005KT 34/08 A2997 RMK A01 T03440083  RH  020%=      5-min Rain = 0
KTA1 150447Z 08005KT 34/08 A2997 RMK A01 T03440083  RH  020%=      5-min Rain = 0
KTA1 150448Z 08005KT 34/08 A2997 RMK A01 T03440083  RH  020%=      5-min Rain = 0
KTA1 150449Z 08005KT 34/08 A2997 RMK A01 T03430083  RH  020%=      5-min Rain = 0
KTA1 150450Z 09004KT 34/08 A2997 RMK A01 T03430083  RH  020%=      5-min Rain = 0
KTA1 150451Z 08004KT 34/08 A2997 RMK A01 T03420083  RH  020%=      5-min Rain = 0
KTA1 150452Z 08005KT 34/08 A2998 RMK A01 T03420083  RH  020%=      5-min Rain = 0
KTA1 150453Z 08006KT 34/08 A2998 RMK A01 T03410083  RH  020%=      5-min Rain = 0
KTA1 150454Z 09006KT 34/08 A2998 RMK A01 T03390083  RH  021%=      5-min Rain = 0
KTA1 150455Z 09005KT 34/08 A2998 RMK A01 T03380083  RH  021%=      5-min Rain = 0
KTA1 150456Z 09005KT 34/08 A2998 RMK A01 T03380083  RH  021%=      5-min Rain = 0
KTA1 150457Z 09005KT 34/08 A2998 RMK A01 T03370083  RH  021%=      5-min Rain = 0
KTA1 150458Z 09005KT 34/08 A2998 RMK A01 T03370083  RH  021%=      5-min Rain = 0
KTA1 150459Z 09005KT 34/08 A2999 RMK A01 T03360083  RH  021%=      5-min Rain = 0

Page generated in 0.0702 seconds.